Aviation Digital Data Service (ADDS)

Output produced by METARs form (0205 UTC 05 June 2020)
found at http://www.aviationweather.gov/metar/data/
 
METAR text: EHEH 050155Z AUTO 20006KT 9999 SCT170 06/06 Q0998 BLU
Conditions at: EHEH (EINDHOVEN RNLAFB, NL) observed 0155 UTC 05 June 2020
Temperature: 6.0°C (43°F)
Dewpoint: 6.0°C (43°F) [RH = 100%]
Pressure (altimeter): 29.47 inches Hg (998.0 mb)
Winds: from the SSW (200 degrees) at 7 MPH (6 knots; 3.1 m/s)
Visibility: 6 or more miles (10+ km)
Ceiling: at least 12,000 feet AGL
Clouds: scattered clouds at 17000 feet AGL
Weather: no significant weather observed at this time

METAR text: EHEH 050125Z AUTO 21006KT 9999 SCT049 BKN170 06/05 Q0998 BLU
Conditions at: EHEH (EINDHOVEN RNLAFB, NL) observed 0125 UTC 05 June 2020
Temperature: 6.0°C (43°F)
Dewpoint: 5.0°C (41°F) [RH = 93%]
Pressure (altimeter): 29.47 inches Hg (998.0 mb)
Winds: from the SSW (210 degrees) at 7 MPH (6 knots; 3.1 m/s)
Visibility: 6 or more miles (10+ km)
Ceiling: 17000 feet AGL
Clouds: scattered clouds at 4900 feet AGL
broken clouds at 17000 feet AGL
Weather: no significant weather observed at this time

METAR text: EHEH 050055Z AUTO 23006KT 190V250 9999 NCD 06/05 Q0998 BLU
Conditions at: EHEH (EINDHOVEN RNLAFB, NL) observed 0055 UTC 05 June 2020
Temperature: 6.0°C (43°F)
Dewpoint: 5.0°C (41°F) [RH = 93%]
Pressure (altimeter): 29.47 inches Hg (998.0 mb)
Winds: from the SW (230 degrees) at 7 MPH (6 knots; 3.1 m/s)
Visibility: 6 or more miles (10+ km)
Ceiling: at least 12,000 feet AGL
Clouds: sky clear below 12,000 feet AGL
Weather: no significant weather observed at this time

METAR text: EHEH 050025Z AUTO 24006KT 9999 FEW044 06/05 Q0998 BLU
Conditions at: EHEH (EINDHOVEN RNLAFB, NL) observed 0025 UTC 05 June 2020
Temperature: 6.0°C (43°F)
Dewpoint: 5.0°C (41°F) [RH = 93%]
Pressure (altimeter): 29.47 inches Hg (998.0 mb)
Winds: from the WSW (240 degrees) at 7 MPH (6 knots; 3.1 m/s)
Visibility: 6 or more miles (10+ km)
Ceiling: at least 12,000 feet AGL
Clouds: few clouds at 4400 feet AGL
Weather: no significant weather observed at this time

METAR text: EHEH 042355Z AUTO 24006KT 9999 FEW026 07/06 Q0998 BLU
Conditions at: EHEH (EINDHOVEN RNLAFB, NL) observed 2355 UTC 04 June 2020
Temperature: 7.0°C (45°F)
Dewpoint: 6.0°C (43°F) [RH = 93%]
Pressure (altimeter): 29.47 inches Hg (998.0 mb)
Winds: from the WSW (240 degrees) at 7 MPH (6 knots; 3.1 m/s)
Visibility: 6 or more miles (10+ km)
Ceiling: at least 12,000 feet AGL
Clouds: few clouds at 2600 feet AGL
Weather: no significant weather observed at this time

METAR text: EHEH 042325Z AUTO 24005KT 9999 NCD 07/06 Q0998 BLU
Conditions at: EHEH (EINDHOVEN RNLAFB, NL) observed 2325 UTC 04 June 2020
Temperature: 7.0°C (45°F)
Dewpoint: 6.0°C (43°F) [RH = 93%]
Pressure (altimeter): 29.47 inches Hg (998.0 mb)
Winds: from the WSW (240 degrees) at 6 MPH (5 knots; 2.6 m/s)
Visibility: 6 or more miles (10+ km)
Ceiling: at least 12,000 feet AGL
Clouds: sky clear below 12,000 feet AGL
Weather: no significant weather observed at this time

METAR text: EHEH 042255Z AUTO 24006KT 9999 SCT070 09/07 Q0998 BLU
Conditions at: EHEH (EINDHOVEN RNLAFB, NL) observed 2255 UTC 04 June 2020
Temperature: 9.0°C (48°F)
Dewpoint: 7.0°C (45°F) [RH = 87%]
Pressure (altimeter): 29.47 inches Hg (998.0 mb)
Winds: from the WSW (240 degrees) at 7 MPH (6 knots; 3.1 m/s)
Visibility: 6 or more miles (10+ km)
Ceiling: at least 12,000 feet AGL
Clouds: scattered clouds at 7000 feet AGL
Weather: no significant weather observed at this time

METAR text: EHEH 042225Z AUTO 25005KT 230V290 9999 FEW055 OVC062 10/08 Q0999 BLU
Conditions at: EHEH (EINDHOVEN RNLAFB, NL) observed 2225 UTC 04 June 2020
Temperature: 10.0°C (50°F)
Dewpoint: 8.0°C (46°F) [RH = 87%]
Pressure (altimeter): 29.50 inches Hg (999.0 mb)
Winds: from the WSW (250 degrees) at 6 MPH (5 knots; 2.6 m/s)
Visibility: 6 or more miles (10+ km)
Ceiling: 6200 feet AGL
Clouds: few clouds at 5500 feet AGL
overcast cloud deck at 6200 feet AGL
Weather: no significant weather observed at this time

METAR text: EHEH 042200Z AUTO 25005KT 9999 FEW023 SCT071 BKN094 09/08 Q0999 BLU
Conditions at: EHEH (EINDHOVEN RNLAFB, NL) observed 2200 UTC 04 June 2020
Temperature: 9.0°C (48°F)
Dewpoint: 8.0°C (46°F) [RH = 93%]
Pressure (altimeter): 29.50 inches Hg (999.0 mb)
Winds: from the WSW (250 degrees) at 6 MPH (5 knots; 2.6 m/s)
Visibility: 6 or more miles (10+ km)
Ceiling: 9400 feet AGL
Clouds: few clouds at 2300 feet AGL
scattered clouds at 7100 feet AGL
broken clouds at 9400 feet AGL
Weather: no significant weather observed at this time

METAR text: EHEH 042155Z AUTO 25004KT 9999 SCT023 BKN030 BKN038 10/08 Q0998 WHT
Conditions at: EHEH (EINDHOVEN RNLAFB, NL) observed 2155 UTC 04 June 2020
Temperature: 10.0°C (50°F)
Dewpoint: 8.0°C (46°F) [RH = 87%]
Pressure (altimeter): 29.47 inches Hg (998.0 mb)
Winds: from the WSW (250 degrees) at 5 MPH (4 knots; 2.1 m/s)
Visibility: 6 or more miles (10+ km)
Ceiling: 3000 feet AGL
Clouds: scattered clouds at 2300 feet AGL
broken clouds at 3000 feet AGL
broken clouds at 3800 feet AGL
Weather: no significant weather observed at this time

METAR text: EHEH 042145Z AUTO 25004KT 230V290 9999 FEW021 BKN031 BKN037 10/09 Q0998 BLU
Conditions at: EHEH (EINDHOVEN RNLAFB, NL) observed 2145 UTC 04 June 2020
Temperature: 10.0°C (50°F)
Dewpoint: 9.0°C (48°F) [RH = 93%]
Pressure (altimeter): 29.47 inches Hg (998.0 mb)
Winds: from the WSW (250 degrees) at 5 MPH (4 knots; 2.1 m/s)
Visibility: 6 or more miles (10+ km)
Ceiling: 3100 feet AGL
Clouds: few clouds at 2100 feet AGL
broken clouds at 3100 feet AGL
broken clouds at 3700 feet AGL
Weather: no significant weather observed at this time

METAR text: EHEH 042138Z AUTO 26004KT 230V290 9999 SCT021 SCT037 BKN043 10/09 Q0998 WHT
Conditions at: EHEH (EINDHOVEN RNLAFB, NL) observed 2138 UTC 04 June 2020
Temperature: 10.0°C (50°F)
Dewpoint: 9.0°C (48°F) [RH = 93%]
Pressure (altimeter): 29.47 inches Hg (998.0 mb)
Winds: from the W (260 degrees) at 5 MPH (4 knots; 2.1 m/s)
Visibility: 6 or more miles (10+ km)
Ceiling: 4300 feet AGL
Clouds: scattered clouds at 2100 feet AGL
scattered clouds at 3700 feet AGL
broken clouds at 4300 feet AGL
Weather: no significant weather observed at this time

METAR text: EHEH 042125Z AUTO 31003KT 240V320 9999 FEW024 OVC100 10/09 Q0998 BLU
Conditions at: EHEH (EINDHOVEN RNLAFB, NL) observed 2125 UTC 04 June 2020
Temperature: 10.0°C (50°F)
Dewpoint: 9.0°C (48°F) [RH = 93%]
Pressure (altimeter): 29.47 inches Hg (998.0 mb)
Winds: from the NW (310 degrees) at 3 MPH (3 knots; 1.5 m/s)
Visibility: 6 or more miles (10+ km)
Ceiling: 10000 feet AGL
Clouds: few clouds at 2400 feet AGL
overcast cloud deck at 10000 feet AGL
Weather: no significant weather observed at this time

METAR text: EHEH 042116Z AUTO 32004KT 240V340 9999 FEW015CB SCT025 OVC100 10/09 Q0998 BLU
Conditions at: EHEH (EINDHOVEN RNLAFB, NL) observed 2116 UTC 04 June 2020
Temperature: 10.0°C (50°F)
Dewpoint: 9.0°C (48°F) [RH = 93%]
Pressure (altimeter): 29.47 inches Hg (998.0 mb)
Winds: from the NW (320 degrees) at 5 MPH (4 knots; 2.1 m/s)
Visibility: 6 or more miles (10+ km)
Ceiling: 10000 feet AGL
Clouds: few clouds at 1500 feet AGL
scattered clouds at 2500 feet AGL
overcast cloud deck at 10000 feet AGL
Weather: no significant weather observed at this time

METAR text: EHEH 042114Z AUTO 28005KT 260V030 9999 FEW015CB BKN023 BKN028 10/09 Q0998 WHT
Conditions at: EHEH (EINDHOVEN RNLAFB, NL) observed 2114 UTC 04 June 2020
Temperature: 10.0°C (50°F)
Dewpoint: 9.0°C (48°F) [RH = 93%]
Pressure (altimeter): 29.47 inches Hg (998.0 mb)
Winds: from the W (280 degrees) at 6 MPH (5 knots; 2.6 m/s)
Visibility: 6 or more miles (10+ km)
Ceiling: 2300 feet AGL
Clouds: few clouds at 1500 feet AGL
broken clouds at 2300 feet AGL
broken clouds at 2800 feet AGL
Weather: no significant weather observed at this time

METAR text: EHEH 042110Z AUTO 26006KT 250V030 9999 FEW020 SCT024 BKN053 10/09 Q0998 WHT
Conditions at: EHEH (EINDHOVEN RNLAFB, NL) observed 2110 UTC 04 June 2020
Temperature: 10.0°C (50°F)
Dewpoint: 9.0°C (48°F) [RH = 93%]
Pressure (altimeter): 29.47 inches Hg (998.0 mb)
Winds: from the W (260 degrees) at 7 MPH (6 knots; 3.1 m/s)
Visibility: 6 or more miles (10+ km)
Ceiling: 5300 feet AGL
Clouds: few clouds at 2000 feet AGL
scattered clouds at 2400 feet AGL
broken clouds at 5300 feet AGL
Weather: no significant weather observed at this time

METAR text: EHEH 042055Z AUTO 24006KT 220V290 9999 FEW023 BKN036 OVC040 10/09 Q0998 BLU
Conditions at: EHEH (EINDHOVEN RNLAFB, NL) observed 2055 UTC 04 June 2020
Temperature: 10.0°C (50°F)
Dewpoint: 9.0°C (48°F) [RH = 93%]
Pressure (altimeter): 29.47 inches Hg (998.0 mb)
Winds: from the WSW (240 degrees) at 7 MPH (6 knots; 3.1 m/s)
Visibility: 6 or more miles (10+ km)
Ceiling: 3600 feet AGL
Clouds: few clouds at 2300 feet AGL
broken clouds at 3600 feet AGL
overcast cloud deck at 4000 feet AGL
Weather: no significant weather observed at this time

METAR text: EHEH 042026Z AUTO 24004KT 220V280 9999 BKN020 BKN041 OVC046 10/09 Q0998 WHT
Conditions at: EHEH (EINDHOVEN RNLAFB, NL) observed 2026 UTC 04 June 2020
Temperature: 10.0°C (50°F)
Dewpoint: 9.0°C (48°F) [RH = 93%]
Pressure (altimeter): 29.47 inches Hg (998.0 mb)
Winds: from the WSW (240 degrees) at 5 MPH (4 knots; 2.1 m/s)
Visibility: 6 or more miles (10+ km)
Ceiling: 2000 feet AGL
Clouds: broken clouds at 2000 feet AGL
broken clouds at 4100 feet AGL
overcast cloud deck at 4600 feet AGL
Weather: no significant weather observed at this time

METAR text: EHEH 042025Z AUTO 25003KT 220V280 9999 SCT018 SCT022 OVC046 10/09 Q0998 WHT
Conditions at: EHEH (EINDHOVEN RNLAFB, NL) observed 2025 UTC 04 June 2020
Temperature: 10.0°C (50°F)
Dewpoint: 9.0°C (48°F) [RH = 93%]
Pressure (altimeter): 29.47 inches Hg (998.0 mb)
Winds: from the WSW (250 degrees) at 3 MPH (3 knots; 1.5 m/s)
Visibility: 6 or more miles (10+ km)
Ceiling: 4600 feet AGL
Clouds: scattered clouds at 1800 feet AGL
scattered clouds at 2200 feet AGL
overcast cloud deck at 4600 feet AGL
Weather: no significant weather observed at this time

METAR text: EHEH 042017Z AUTO 27003KT 220V310 9999 SCT017 BKN021 OVC048 10/09 Q0998 WHT
Conditions at: EHEH (EINDHOVEN RNLAFB, NL) observed 2017 UTC 04 June 2020
Temperature: 10.0°C (50°F)
Dewpoint: 9.0°C (48°F) [RH = 93%]
Pressure (altimeter): 29.47 inches Hg (998.0 mb)
Winds: from the W (270 degrees) at 3 MPH (3 knots; 1.5 m/s)
Visibility: 6 or more miles (10+ km)
Ceiling: 2100 feet AGL
Clouds: scattered clouds at 1700 feet AGL
broken clouds at 2100 feet AGL
overcast cloud deck at 4800 feet AGL
Weather: no significant weather observed at this time

METAR text: EHEH 042010Z AUTO 28004KT 230V320 9999 FEW017 SCT022 BKN047 10/09 Q0998 WHT
Conditions at: EHEH (EINDHOVEN RNLAFB, NL) observed 2010 UTC 04 June 2020
Temperature: 10.0°C (50°F)
Dewpoint: 9.0°C (48°F) [RH = 93%]
Pressure (altimeter): 29.47 inches Hg (998.0 mb)
Winds: from the W (280 degrees) at 5 MPH (4 knots; 2.1 m/s)
Visibility: 6 or more miles (10+ km)
Ceiling: 4700 feet AGL
Clouds: few clouds at 1700 feet AGL
scattered clouds at 2200 feet AGL
broken clouds at 4700 feet AGL
Weather: no significant weather observed at this time

METAR text: EHEH 041955Z AUTO 29005KT 230V350 9999 FEW035 BKN045 OVC068 10/09 Q0998 BLU
Conditions at: EHEH (EINDHOVEN RNLAFB, NL) observed 1955 UTC 04 June 2020
Temperature: 10.0°C (50°F)
Dewpoint: 9.0°C (48°F) [RH = 93%]
Pressure (altimeter): 29.47 inches Hg (998.0 mb)
Winds: from the WNW (290 degrees) at 6 MPH (5 knots; 2.6 m/s)
Visibility: 6 or more miles (10+ km)
Ceiling: 4500 feet AGL
Clouds: few clouds at 3500 feet AGL
broken clouds at 4500 feet AGL
overcast cloud deck at 6800 feet AGL
Weather: no significant weather observed at this time

METAR text: EHEH 041947Z AUTO 29006KT 230V340 9999 SCT035 OVC045 11/09 Q0998 BLU
Conditions at: EHEH (EINDHOVEN RNLAFB, NL) observed 1947 UTC 04 June 2020
Temperature: 11.0°C (52°F)
Dewpoint: 9.0°C (48°F) [RH = 87%]
Pressure (altimeter): 29.47 inches Hg (998.0 mb)
Winds: from the WNW (290 degrees) at 7 MPH (6 knots; 3.1 m/s)
Visibility: 6 or more miles (10+ km)
Ceiling: 4500 feet AGL
Clouds: scattered clouds at 3500 feet AGL
overcast cloud deck at 4500 feet AGL
Weather: no significant weather observed at this time

METAR text: EHEH 041941Z AUTO 29006KT 230V350 9999 FEW010 SCT015 OVC040 11/09 Q0998 WHT
Conditions at: EHEH (EINDHOVEN RNLAFB, NL) observed 1941 UTC 04 June 2020
Temperature: 11.0°C (52°F)
Dewpoint: 9.0°C (48°F) [RH = 87%]
Pressure (altimeter): 29.47 inches Hg (998.0 mb)
Winds: from the WNW (290 degrees) at 7 MPH (6 knots; 3.1 m/s)
Visibility: 6 or more miles (10+ km)
Ceiling: 4000 feet AGL
Clouds: few clouds at 1000 feet AGL
scattered clouds at 1500 feet AGL
overcast cloud deck at 4000 feet AGL
Weather: no significant weather observed at this time

METAR text: EHEH 041925Z AUTO 30004KT 260V020 9999 -DZ FEW009 SCT011 BKN014 11/10 Q0998 REDZ GRN
Conditions at: EHEH (EINDHOVEN RNLAFB, NL) observed 1925 UTC 04 June 2020
Temperature: 11.0°C (52°F)
Dewpoint: 10.0°C (50°F) [RH = 94%]
Pressure (altimeter): 29.47 inches Hg (998.0 mb)
Winds: from the WNW (300 degrees) at 5 MPH (4 knots; 2.1 m/s)
Visibility: 6 or more miles (10+ km)
Ceiling: 1400 feet AGL
Clouds: few clouds at 900 feet AGL
scattered clouds at 1100 feet AGL
broken clouds at 1400 feet AGL
Weather: -DZ  (light drizzle)

METAR text: EHEH 041914Z AUTO 30007KT 250V350 9999 -RADZ FEW010 BKN013 BKN018 11/10 Q0998 GRN
Conditions at: EHEH (EINDHOVEN RNLAFB, NL) observed 1914 UTC 04 June 2020
Temperature: 11.0°C (52°F)
Dewpoint: 10.0°C (50°F) [RH = 94%]
Pressure (altimeter): 29.47 inches Hg (998.0 mb)
Winds: from the WNW (300 degrees) at 8 MPH (7 knots; 3.6 m/s)
Visibility: 6 or more miles (10+ km)
Ceiling: 1300 feet AGL
Clouds: few clouds at 1000 feet AGL
broken clouds at 1300 feet AGL
broken clouds at 1800 feet AGL
Weather: -RA -DZ  (light rain, light drizzle)

METAR text: EHEH 041912Z AUTO 30007KT 250V360 9999 +DZ FEW012 BKN035 OVC046 11/10 Q0998 BLU
Conditions at: EHEH (EINDHOVEN RNLAFB, NL) observed 1912 UTC 04 June 2020
Temperature: 11.0°C (52°F)
Dewpoint: 10.0°C (50°F) [RH = 94%]
Pressure (altimeter): 29.47 inches Hg (998.0 mb)
Winds: from the WNW (300 degrees) at 8 MPH (7 knots; 3.6 m/s)
Visibility: 6 or more miles (10+ km)
Ceiling: 3500 feet AGL
Clouds: few clouds at 1200 feet AGL
broken clouds at 3500 feet AGL
overcast cloud deck at 4600 feet AGL
Weather: +DZ  (heavy drizzle)

METAR text: EHEH 041857Z AUTO 31008KT 270V360 9999 +DZRA FEW015CB SCT045 BKN049 10/10 Q0998 BLU
Conditions at: EHEH (EINDHOVEN RNLAFB, NL) observed 1857 UTC 04 June 2020
Temperature: 10.0°C (50°F)
Dewpoint: 10.0°C (50°F) [RH = 100%]
Pressure (altimeter): 29.47 inches Hg (998.0 mb)
Winds: from the NW (310 degrees) at 9 MPH (8 knots; 4.1 m/s)
Visibility: 6 or more miles (10+ km)
Ceiling: 4900 feet AGL
Clouds: few clouds at 1500 feet AGL
scattered clouds at 4500 feet AGL
broken clouds at 4900 feet AGL
Weather: +DZ +RA  (heavy drizzle, heavy rain)

METAR text: EHEH 041855Z AUTO 31010KT 260V360 8000 DZ FEW015CB SCT039 BKN043 10/09 Q0998 BLU
Conditions at: EHEH (EINDHOVEN RNLAFB, NL) observed 1855 UTC 04 June 2020
Temperature: 10.0°C (50°F)
Dewpoint: 9.0°C (48°F) [RH = 93%]
Pressure (altimeter): 29.47 inches Hg (998.0 mb)
Winds: from the NW (310 degrees) at 12 MPH (10 knots; 5.1 m/s)
Visibility: 5 miles ( 8 km)
Ceiling: 4300 feet AGL
Clouds: few clouds at 1500 feet AGL
scattered clouds at 3900 feet AGL
broken clouds at 4300 feet AGL
Weather: DZ  (moderate drizzle)

METAR text: EHEH 041850Z AUTO 31011G22KT 250V360 7000 +DZ FEW008 SCT026 BKN038 10/09 Q0998 WHT
Conditions at: EHEH (EINDHOVEN RNLAFB, NL) observed 1850 UTC 04 June 2020
Temperature: 10.0°C (50°F)
Dewpoint: 9.0°C (48°F) [RH = 93%]
Pressure (altimeter): 29.47 inches Hg (998.0 mb)
Winds: from the NW (310 degrees) at 13 MPH (11 knots; 5.7 m/s)
gusting to 25 MPH (22 knots; 11.3 m/s)
Visibility: 4 miles ( 7 km)
Ceiling: 3800 feet AGL
Clouds: few clouds at 800 feet AGL
scattered clouds at 2600 feet AGL
broken clouds at 3800 feet AGL
Weather: +DZ  (heavy drizzle)

METAR text: EHEH 041845Z AUTO 29011G22KT 240V350 6000 -RADZ FEW008 SCT009 BKN011 11/09 Q0998 GRN
Conditions at: EHEH (EINDHOVEN RNLAFB, NL) observed 1845 UTC 04 June 2020
Temperature: 11.0°C (52°F)
Dewpoint: 9.0°C (48°F) [RH = 87%]
Pressure (altimeter): 29.47 inches Hg (998.0 mb)
Winds: from the WNW (290 degrees) at 13 MPH (11 knots; 5.7 m/s)
gusting to 25 MPH (22 knots; 11.3 m/s)
Visibility: 4 miles ( 6 km)
Ceiling: 1100 feet AGL
Clouds: few clouds at 800 feet AGL
scattered clouds at 900 feet AGL
broken clouds at 1100 feet AGL
Weather: -RA -DZ  (light rain, light drizzle)

METAR text: EHEH 041838Z AUTO 29009KT 240V360 9999 FEW009 BKN011 BKN014 11/10 Q0998 GRN
Conditions at: EHEH (EINDHOVEN RNLAFB, NL) observed 1838 UTC 04 June 2020
Temperature: 11.0°C (52°F)
Dewpoint: 10.0°C (50°F) [RH = 94%]
Pressure (altimeter): 29.47 inches Hg (998.0 mb)
Winds: from the WNW (290 degrees) at 10 MPH (9 knots; 4.6 m/s)
Visibility: 6 or more miles (10+ km)
Ceiling: 1100 feet AGL
Clouds: few clouds at 900 feet AGL
broken clouds at 1100 feet AGL
broken clouds at 1400 feet AGL
Weather: no significant weather observed at this time

METAR text: EHEH 041837Z AUTO 29008KT 250V360 9999 FEW009 SCT011 OVC016 11/10 Q0998 GRN
Conditions at: EHEH (EINDHOVEN RNLAFB, NL) observed 1837 UTC 04 June 2020
Temperature: 11.0°C (52°F)
Dewpoint: 10.0°C (50°F) [RH = 94%]
Pressure (altimeter): 29.47 inches Hg (998.0 mb)
Winds: from the WNW (290 degrees) at 9 MPH (8 knots; 4.1 m/s)
Visibility: 6 or more miles (10+ km)
Ceiling: 1600 feet AGL
Clouds: few clouds at 900 feet AGL
scattered clouds at 1100 feet AGL
overcast cloud deck at 1600 feet AGL
Weather: no significant weather observed at this time

METAR text: EHEH 041830Z AUTO 30008KT 250V360 9999 SCT015 BKN018 BKN028 11/10 Q0998 WHT
Conditions at: EHEH (EINDHOVEN RNLAFB, NL) observed 1830 UTC 04 June 2020
Temperature: 11.0°C (52°F)
Dewpoint: 10.0°C (50°F) [RH = 94%]
Pressure (altimeter): 29.47 inches Hg (998.0 mb)
Winds: from the WNW (300 degrees) at 9 MPH (8 knots; 4.1 m/s)
Visibility: 6 or more miles (10+ km)
Ceiling: 1800 feet AGL
Clouds: scattered clouds at 1500 feet AGL
broken clouds at 1800 feet AGL
broken clouds at 2800 feet AGL
Weather: no significant weather observed at this time

METAR text: EHEH 041829Z AUTO 30007KT 240V350 9999 SCT017 SCT026 OVC040 11/10 Q0998 WHT
Conditions at: EHEH (EINDHOVEN RNLAFB, NL) observed 1829 UTC 04 June 2020
Temperature: 11.0°C (52°F)
Dewpoint: 10.0°C (50°F) [RH = 94%]
Pressure (altimeter): 29.47 inches Hg (998.0 mb)
Winds: from the WNW (300 degrees) at 8 MPH (7 knots; 3.6 m/s)
Visibility: 6 or more miles (10+ km)
Ceiling: 4000 feet AGL
Clouds: scattered clouds at 1700 feet AGL
scattered clouds at 2600 feet AGL
overcast cloud deck at 4000 feet AGL
Weather: no significant weather observed at this time

METAR text: EHEH 041825Z AUTO 30006KT 240V340 9999 FEW017 BKN039 OVC043 11/10 Q0998 REDZ BLU
Conditions at: EHEH (EINDHOVEN RNLAFB, NL) observed 1825 UTC 04 June 2020
Temperature: 11.0°C (52°F)
Dewpoint: 10.0°C (50°F) [RH = 94%]
Pressure (altimeter): 29.47 inches Hg (998.0 mb)
Winds: from the WNW (300 degrees) at 7 MPH (6 knots; 3.1 m/s)
Visibility: 6 or more miles (10+ km)
Ceiling: 3900 feet AGL
Clouds: few clouds at 1700 feet AGL
broken clouds at 3900 feet AGL
overcast cloud deck at 4300 feet AGL
Weather: no significant weather observed at this time

METAR text: EHEH 041818Z AUTO 30007KT 260V360 9999 FEW015CB SCT029 BKN035 11/10 Q0998 BLU
Conditions at: EHEH (EINDHOVEN RNLAFB, NL) observed 1818 UTC 04 June 2020
Temperature: 11.0°C (52°F)
Dewpoint: 10.0°C (50°F) [RH = 94%]
Pressure (altimeter): 29.47 inches Hg (998.0 mb)
Winds: from the WNW (300 degrees) at 8 MPH (7 knots; 3.6 m/s)
Visibility: 6 or more miles (10+ km)
Ceiling: 3500 feet AGL
Clouds: few clouds at 1500 feet AGL
scattered clouds at 2900 feet AGL
broken clouds at 3500 feet AGL
Weather: no significant weather observed at this time

METAR text: EHEH 041814Z AUTO 30009KT 260V010 9999 FEW015CB SCT021 BKN028 11/10 Q0998 WHT
Conditions at: EHEH (EINDHOVEN RNLAFB, NL) observed 1814 UTC 04 June 2020
Temperature: 11.0°C (52°F)
Dewpoint: 10.0°C (50°F) [RH = 94%]
Pressure (altimeter): 29.47 inches Hg (998.0 mb)
Winds: from the WNW (300 degrees) at 10 MPH (9 knots; 4.6 m/s)
Visibility: 6 or more miles (10+ km)
Ceiling: 2800 feet AGL
Clouds: few clouds at 1500 feet AGL
scattered clouds at 2100 feet AGL
broken clouds at 2800 feet AGL
Weather: no significant weather observed at this time

METAR text: EHEH 041803Z AUTO 30009KT 230V340 9999 -SHRA +DZ FEW015CB SCT021 OVC025 11/10 Q0998 WHT
Conditions at: EHEH (EINDHOVEN RNLAFB, NL) observed 1803 UTC 04 June 2020
Temperature: 11.0°C (52°F)
Dewpoint: 10.0°C (50°F) [RH = 94%]
Pressure (altimeter): 29.47 inches Hg (998.0 mb)
Winds: from the WNW (300 degrees) at 10 MPH (9 knots; 4.6 m/s)
Visibility: 6 or more miles (10+ km)
Ceiling: 2500 feet AGL
Clouds: few clouds at 1500 feet AGL
scattered clouds at 2100 feet AGL
overcast cloud deck at 2500 feet AGL
Weather: -SHRA +DZ  (light rain showers, heavy drizzle)

METAR text: EHEH 041756Z AUTO 29009KT 250V360 9999 -RADZ FEW015CB SCT016 BKN019 BKN024 11/10 Q0998 WHT
Conditions at: EHEH (EINDHOVEN RNLAFB, NL) observed 1756 UTC 04 June 2020
Temperature: 11.0°C (52°F)
Dewpoint: 10.0°C (50°F) [RH = 94%]
Pressure (altimeter): 29.47 inches Hg (998.0 mb)
Winds: from the WNW (290 degrees) at 10 MPH (9 knots; 4.6 m/s)
Visibility: 6 or more miles (10+ km)
Ceiling: 1900 feet AGL
Clouds: few clouds at 1500 feet AGL
scattered clouds at 1600 feet AGL
broken clouds at 1900 feet AGL
broken clouds at 2400 feet AGL
Weather: -RA -DZ  (light rain, light drizzle)

METAR text: EHEH 041755Z AUTO 29010KT 250V360 9999 -SHRA FEW015CB SCT016 BKN025 12/10 Q0998 RERA WHT
Conditions at: EHEH (EINDHOVEN RNLAFB, NL) observed 1755 UTC 04 June 2020
Temperature: 12.0°C (54°F)
Dewpoint: 10.0°C (50°F) [RH = 88%]
Pressure (altimeter): 29.47 inches Hg (998.0 mb)
Winds: from the WNW (290 degrees) at 12 MPH (10 knots; 5.1 m/s)
Visibility: 6 or more miles (10+ km)
Ceiling: 2500 feet AGL
Clouds: few clouds at 1500 feet AGL
scattered clouds at 1600 feet AGL
broken clouds at 2500 feet AGL
Weather: -SHRA  (light rain showers)

METAR text: EHEH 041747Z AUTO 30010G20KT 240V350 9999 -SHRA FEW015CB SCT020 BKN024 BKN029 12/09 Q0997 WHT
Conditions at: EHEH (EINDHOVEN RNLAFB, NL) observed 1747 UTC 04 June 2020
Temperature: 12.0°C (54°F)
Dewpoint: 9.0°C (48°F) [RH = 82%]
Pressure (altimeter): 29.44 inches Hg (997.0 mb)
Winds: from the WNW (300 degrees) at 12 MPH (10 knots; 5.1 m/s)
gusting to 23 MPH (20 knots; 10.3 m/s)
Visibility: 6 or more miles (10+ km)
Ceiling: 2400 feet AGL
Clouds: few clouds at 1500 feet AGL
scattered clouds at 2000 feet AGL
broken clouds at 2400 feet AGL
broken clouds at 2900 feet AGL
Weather: -SHRA  (light rain showers)

METAR text: EHEH 041743Z AUTO 30009G20KT 240V360 9999 SHRA FEW015CB SCT021 BKN029 OVC032 12/09 Q0997 WHT
Conditions at: EHEH (EINDHOVEN RNLAFB, NL) observed 1743 UTC 04 June 2020
Temperature: 12.0°C (54°F)
Dewpoint: 9.0°C (48°F) [RH = 82%]
Pressure (altimeter): 29.44 inches Hg (997.0 mb)
Winds: from the WNW (300 degrees) at 10 MPH (9 knots; 4.6 m/s)
gusting to 23 MPH (20 knots; 10.3 m/s)
Visibility: 6 or more miles (10+ km)
Ceiling: 2900 feet AGL
Clouds: few clouds at 1500 feet AGL
scattered clouds at 2100 feet AGL
broken clouds at 2900 feet AGL
overcast cloud deck at 3200 feet AGL
Weather: SHRA  (rain showers)

METAR text: EHEH 041738Z AUTO 30007KT 240V360 9999 RA FEW015CB BKN030 OVC035 13/09 Q0997 BLU
Conditions at: EHEH (EINDHOVEN RNLAFB, NL) observed 1738 UTC 04 June 2020
Temperature: 13.0°C (55°F)
Dewpoint: 9.0°C (48°F) [RH = 77%]
Pressure (altimeter): 29.44 inches Hg (997.0 mb)
Winds: from the WNW (300 degrees) at 8 MPH (7 knots; 3.6 m/s)
Visibility: 6 or more miles (10+ km)
Ceiling: 3000 feet AGL
Clouds: few clouds at 1500 feet AGL
broken clouds at 3000 feet AGL
overcast cloud deck at 3500 feet AGL
Weather: RA  (moderate rain)

METAR text: EHEH 041725Z AUTO 31009KT 250V360 9999 FEW017CB SCT066 BKN074 13/09 Q0997 BLU
Conditions at: EHEH (EINDHOVEN RNLAFB, NL) observed 1725 UTC 04 June 2020
Temperature: 13.0°C (55°F)
Dewpoint: 9.0°C (48°F) [RH = 77%]
Pressure (altimeter): 29.44 inches Hg (997.0 mb)
Winds: from the NW (310 degrees) at 10 MPH (9 knots; 4.6 m/s)
Visibility: 6 or more miles (10+ km)
Ceiling: 7400 feet AGL
Clouds: few clouds at 1700 feet AGL
scattered clouds at 6600 feet AGL
broken clouds at 7400 feet AGL
Weather: no significant weather observed at this time

METAR text: EHEH 041659Z AUTO 31008KT 230V010 9999 FEW023 SCT040 BKN050 13/09 Q0997 BLU
Conditions at: EHEH (EINDHOVEN RNLAFB, NL) observed 1659 UTC 04 June 2020
Temperature: 13.0°C (55°F)
Dewpoint: 9.0°C (48°F) [RH = 77%]
Pressure (altimeter): 29.44 inches Hg (997.0 mb)
Winds: from the NW (310 degrees) at 9 MPH (8 knots; 4.1 m/s)
Visibility: 6 or more miles (10+ km)
Ceiling: 5000 feet AGL
Clouds: few clouds at 2300 feet AGL
scattered clouds at 4000 feet AGL
broken clouds at 5000 feet AGL
Weather: no significant weather observed at this time

METAR text: EHEH 041655Z AUTO 31007KT 230V350 9999 SCT023/// SCT029/// BKN043/// 14/09 Q0997 WHT
Conditions at: EHEH (EINDHOVEN RNLAFB, NL) observed 1655 UTC 04 June 2020
Temperature: 14.0°C (57°F)
Dewpoint: 9.0°C (48°F) [RH = 72%]
Pressure (altimeter): 29.44 inches Hg (997.0 mb)
Winds: from the NW (310 degrees) at 8 MPH (7 knots; 3.6 m/s)
Visibility: 6 or more miles (10+ km)
Ceiling: 4300 feet AGL
Clouds: scattered clouds at 2300 feet AGL
scattered clouds at 2900 feet AGL
broken clouds at 4300 feet AGL
Weather: no significant weather observed at this time

METAR text: EHEH 041651Z AUTO 31007KT 250V020 9999 SCT023/// SCT028/// BKN036/// 14/09 Q0997 WHT
Conditions at: EHEH (EINDHOVEN RNLAFB, NL) observed 1651 UTC 04 June 2020
Temperature: 14.0°C (57°F)
Dewpoint: 9.0°C (48°F) [RH = 72%]
Pressure (altimeter): 29.44 inches Hg (997.0 mb)
Winds: from the NW (310 degrees) at 8 MPH (7 knots; 3.6 m/s)
Visibility: 6 or more miles (10+ km)
Ceiling: 3600 feet AGL
Clouds: scattered clouds at 2300 feet AGL
scattered clouds at 2800 feet AGL
broken clouds at 3600 feet AGL
Weather: no significant weather observed at this time

METAR text: EHEH 041634Z AUTO 32010KT 250V010 9999 FEW031/// BKN043/// BKN048/// 13/09 Q0997 BLU
Conditions at: EHEH (EINDHOVEN RNLAFB, NL) observed 1634 UTC 04 June 2020
Temperature: 13.0°C (55°F)
Dewpoint: 9.0°C (48°F) [RH = 77%]
Pressure (altimeter): 29.44 inches Hg (997.0 mb)
Winds: from the NW (320 degrees) at 12 MPH (10 knots; 5.1 m/s)
Visibility: 6 or more miles (10+ km)
Ceiling: 4300 feet AGL
Clouds: few clouds at 3100 feet AGL
broken clouds at 4300 feet AGL
broken clouds at 4800 feet AGL
Weather: no significant weather observed at this time

METAR text: EHEH 041625Z AUTO 31009KT 240V020 9999 DZRA FEW020 SCT027 BKN031 13/09 Q0997 BLU 30008KT 9999 SCT020 BKN045 TEMPO SCT018CB BKN035
Conditions at: EHEH (EINDHOVEN RNLAFB, NL) observed 1625 UTC 04 June 2020
Temperature: 13.0°C (55°F)
Dewpoint: 9.0°C (48°F) [RH = 77%]
Pressure (altimeter): 29.44 inches Hg (997.0 mb)
Winds: from the NW (310 degrees) at 10 MPH (9 knots; 4.6 m/s)
Visibility: 6 or more miles (10+ km)
Ceiling: 3100 feet AGL
Clouds: few clouds at 2000 feet AGL
scattered clouds at 2700 feet AGL
broken clouds at 3100 feet AGL
scattered clouds at 2000 feet AGL
Weather: DZ RA  (moderate drizzle, moderate rain)

METAR text: EHEH 041555Z AUTO 30010KT 230V350 9999 BKN060 BKN068 OVC077 14/09 Q0997 BLU 30008KT 9999 SCT020 BKN045 TEMPO SCT018CB BKN035
Conditions at: EHEH (EINDHOVEN RNLAFB, NL) observed 1555 UTC 04 June 2020
Temperature: 14.0°C (57°F)
Dewpoint: 9.0°C (48°F) [RH = 72%]
Pressure (altimeter): 29.44 inches Hg (997.0 mb)
Winds: from the WNW (300 degrees) at 12 MPH (10 knots; 5.1 m/s)
Visibility: 6 or more miles (10+ km)
Ceiling: 6000 feet AGL
Clouds: broken clouds at 6000 feet AGL
broken clouds at 6800 feet AGL
overcast cloud deck at 7700 feet AGL
scattered clouds at 2000 feet AGL
Weather: no significant weather observed at this time

METAR text: EHEH 041525Z AUTO 29006KT 220V340 9999 FEW037 BKN041 BKN045 13/10 Q0997 BLU 30008KT 9999 SCT020 BKN045 TEMPO SCT018CB BKN035
Conditions at: EHEH (EINDHOVEN RNLAFB, NL) observed 1525 UTC 04 June 2020
Temperature: 13.0°C (55°F)
Dewpoint: 10.0°C (50°F) [RH = 82%]
Pressure (altimeter): 29.44 inches Hg (997.0 mb)
Winds: from the WNW (290 degrees) at 7 MPH (6 knots; 3.1 m/s)
Visibility: 6 or more miles (10+ km)
Ceiling: 4100 feet AGL
Clouds: few clouds at 3700 feet AGL
broken clouds at 4100 feet AGL
broken clouds at 4500 feet AGL
scattered clouds at 2000 feet AGL
Weather: no significant weather observed at this time

METAR text: EHEH 041455Z AUTO 29006KT 250V360 9999 SCT055 BKN064 BKN070 13/11 Q0997 BLU 30008KT 9999 SCT020 BKN045
Conditions at: EHEH (EINDHOVEN RNLAFB, NL) observed 1455 UTC 04 June 2020
Temperature: 13.0°C (55°F)
Dewpoint: 11.0°C (52°F) [RH = 88%]
Pressure (altimeter): 29.44 inches Hg (997.0 mb)
Winds: from the WNW (290 degrees) at 7 MPH (6 knots; 3.1 m/s)
Visibility: 6 or more miles (10+ km)
Ceiling: 6400 feet AGL
Clouds: scattered clouds at 5500 feet AGL
broken clouds at 6400 feet AGL
broken clouds at 7000 feet AGL
scattered clouds at 2000 feet AGL
Weather: no significant weather observed at this time

METAR text: EHEH 041425Z AUTO 30009KT 240V360 9999 DZ FEW057 BKN076 OVC085 13/10 Q0997 BLU 30009KT 9999 SCT020 BKN045
Conditions at: EHEH (EINDHOVEN RNLAFB, NL) observed 1425 UTC 04 June 2020
Temperature: 13.0°C (55°F)
Dewpoint: 10.0°C (50°F) [RH = 82%]
Pressure (altimeter): 29.44 inches Hg (997.0 mb)
Winds: from the WNW (300 degrees) at 10 MPH (9 knots; 4.6 m/s)
Visibility: 6 or more miles (10+ km)
Ceiling: 7600 feet AGL
Clouds: few clouds at 5700 feet AGL
broken clouds at 7600 feet AGL
overcast cloud deck at 8500 feet AGL
scattered clouds at 2000 feet AGL
Weather: DZ  (moderate drizzle)

METAR text: EHEH 041404Z AUTO 31013KT 240V020 9999 DZRA FEW011 FEW015CB SCT017 BKN021 13/11 Q0997 WHT 29007KT 9999 SCT020 BKN040 TEMPO 30011G22KT SCT015CB BKN030
Conditions at: EHEH (EINDHOVEN RNLAFB, NL) observed 1404 UTC 04 June 2020
Temperature: 13.0°C (55°F)
Dewpoint: 11.0°C (52°F) [RH = 88%]
Pressure (altimeter): 29.44 inches Hg (997.0 mb)
Winds: from the NW (310 degrees) at 15 MPH (13 knots; 6.7 m/s)
Visibility: 6 or more miles (10+ km)
Ceiling: 2100 feet AGL
Clouds: few clouds at 1100 feet AGL
few clouds at 1500 feet AGL
scattered clouds at 1700 feet AGL
broken clouds at 2100 feet AGL
Weather: DZ RA  (moderate drizzle, moderate rain)

METAR text: EHEH 041356Z AUTO 31012G22KT 240V360 9999 DZ FEW011 FEW015CB BKN016 BKN021 13/11 Q0997 WHT 29007KT 9999 SCT020 BKN040 TEMPO 30011G22KT SCT015CB BKN030
Conditions at: EHEH (EINDHOVEN RNLAFB, NL) observed 1356 UTC 04 June 2020
Temperature: 13.0°C (55°F)
Dewpoint: 11.0°C (52°F) [RH = 88%]
Pressure (altimeter): 29.44 inches Hg (997.0 mb)
Winds: from the NW (310 degrees) at 14 MPH (12 knots; 6.2 m/s)
gusting to 25 MPH (22 knots; 11.3 m/s)
Visibility: 6 or more miles (10+ km)
Ceiling: 1600 feet AGL
Clouds: few clouds at 1100 feet AGL
few clouds at 1500 feet AGL
broken clouds at 1600 feet AGL
broken clouds at 2100 feet AGL
Weather: DZ  (moderate drizzle)

METAR text: EHEH 041355Z AUTO 30009G20KT 240V360 9999 -RADZ FEW012 FEW015CB SCT017 BKN021 13/12 Q0997 RERA REDZ WHT 29007KT 9999 SCT020 BKN040 TEMPO 30011G22KT SCT015CB BKN030
Conditions at: EHEH (EINDHOVEN RNLAFB, NL) observed 1355 UTC 04 June 2020
Temperature: 13.0°C (55°F)
Dewpoint: 12.0°C (54°F) [RH = 94%]
Pressure (altimeter): 29.44 inches Hg (997.0 mb)
Winds: from the WNW (300 degrees) at 10 MPH (9 knots; 4.6 m/s)
gusting to 23 MPH (20 knots; 10.3 m/s)
Visibility: 6 or more miles (10+ km)
Ceiling: 2100 feet AGL
Clouds: few clouds at 1200 feet AGL
few clouds at 1500 feet AGL
scattered clouds at 1700 feet AGL
broken clouds at 2100 feet AGL
Weather: -RA -DZ  (light rain, light drizzle)

METAR text: EHEH 041349Z AUTO 30009KT 250V360 9999 DZRA FEW015CB BKN040 BKN045 13/12 Q0997 BLU 29007KT 9999 SCT020 BKN040 TEMPO 30011G22KT SCT015CB BKN030
Conditions at: EHEH (EINDHOVEN RNLAFB, NL) observed 1349 UTC 04 June 2020
Temperature: 13.0°C (55°F)
Dewpoint: 12.0°C (54°F) [RH = 94%]
Pressure (altimeter): 29.44 inches Hg (997.0 mb)
Winds: from the WNW (300 degrees) at 10 MPH (9 knots; 4.6 m/s)
Visibility: 6 or more miles (10+ km)
Ceiling: 4000 feet AGL
Clouds: few clouds at 1500 feet AGL
broken clouds at 4000 feet AGL
broken clouds at 4500 feet AGL
scattered clouds at 2000 feet AGL
Weather: DZ RA  (moderate drizzle, moderate rain)

METAR text: EHEH 041340Z AUTO 30011G21KT 250V350 9999 -RA FEW014 FEW015CB BKN028 BKN045 13/11 Q0997 BLU 29007KT 9999 SCT020 BKN040 TEMPO 30011G22KT SCT015CB BKN030
Conditions at: EHEH (EINDHOVEN RNLAFB, NL) observed 1340 UTC 04 June 2020
Temperature: 13.0°C (55°F)
Dewpoint: 11.0°C (52°F) [RH = 88%]
Pressure (altimeter): 29.44 inches Hg (997.0 mb)
Winds: from the WNW (300 degrees) at 13 MPH (11 knots; 5.7 m/s)
gusting to 24 MPH (21 knots; 10.8 m/s)
Visibility: 6 or more miles (10+ km)
Ceiling: 2800 feet AGL
Clouds: few clouds at 1400 feet AGL
few clouds at 1500 feet AGL
broken clouds at 2800 feet AGL
broken clouds at 4500 feet AGL
Weather: -RA  (light rain)

METAR text: EHEH 041331Z AUTO 29008G21KT 230V340 9999 DZRA FEW014 FEW015CB BKN020 OVC024 13/11 Q0997 WHT 29007KT 9999 SCT020 BKN040 TEMPO 30010G22KT SCT015CB BKN030
Conditions at: EHEH (EINDHOVEN RNLAFB, NL) observed 1331 UTC 04 June 2020
Temperature: 13.0°C (55°F)
Dewpoint: 11.0°C (52°F) [RH = 88%]
Pressure (altimeter): 29.44 inches Hg (997.0 mb)
Winds: from the WNW (290 degrees) at 9 MPH (8 knots; 4.1 m/s)
gusting to 24 MPH (21 knots; 10.8 m/s)
Visibility: 6 or more miles (10+ km)
Ceiling: 2000 feet AGL
Clouds: few clouds at 1400 feet AGL
few clouds at 1500 feet AGL
broken clouds at 2000 feet AGL
overcast cloud deck at 2400 feet AGL
Weather: DZ RA  (moderate drizzle, moderate rain)

METAR text: EHEH 041325Z AUTO 28005KT 230V340 9999 DZ FEW015CB BKN021 OVC026 14/12 Q0997 WHT 29007KT 9999 SCT020 BKN040 TEMPO 30010G20KT SCT015CB BKN035
Conditions at: EHEH (EINDHOVEN RNLAFB, NL) observed 1325 UTC 04 June 2020
Temperature: 14.0°C (57°F)
Dewpoint: 12.0°C (54°F) [RH = 88%]
Pressure (altimeter): 29.44 inches Hg (997.0 mb)
Winds: from the W (280 degrees) at 6 MPH (5 knots; 2.6 m/s)
Visibility: 6 or more miles (10+ km)
Ceiling: 2100 feet AGL
Clouds: few clouds at 1500 feet AGL
broken clouds at 2100 feet AGL
overcast cloud deck at 2600 feet AGL
scattered clouds at 2000 feet AGL
Weather: DZ  (moderate drizzle)

METAR text: EHEH 041320Z AUTO 29004KT 230V340 9999 DZRA FEW015CB BKN020 OVC024 14/12 Q0997 WHT 29007KT 9999 SCT020 BKN040 TEMPO 30010G20KT SCT015CB BKN035
Conditions at: EHEH (EINDHOVEN RNLAFB, NL) observed 1320 UTC 04 June 2020
Temperature: 14.0°C (57°F)
Dewpoint: 12.0°C (54°F) [RH = 88%]
Pressure (altimeter): 29.44 inches Hg (997.0 mb)
Winds: from the WNW (290 degrees) at 5 MPH (4 knots; 2.1 m/s)
Visibility: 6 or more miles (10+ km)
Ceiling: 2000 feet AGL
Clouds: few clouds at 1500 feet AGL
broken clouds at 2000 feet AGL
overcast cloud deck at 2400 feet AGL
scattered clouds at 2000 feet AGL
Weather: DZ RA  (moderate drizzle, moderate rain)

METAR text: EHEH 041317Z AUTO VRB04KT 9999 FEW015CB BKN020 BKN024 OVC029 14/12 Q0997 WHT 29007KT 9999 SCT020 BKN045 TEMPO 30010G20KT SCT015CB BKN040
Conditions at: EHEH (EINDHOVEN RNLAFB, NL) observed 1317 UTC 04 June 2020
Temperature: 14.0°C (57°F)
Dewpoint: 12.0°C (54°F) [RH = 88%]
Pressure (altimeter): 29.44 inches Hg (997.0 mb)
Winds: variable direction winds at 5 MPH (4 knots; 2.1 m/s)
Visibility: 6 or more miles (10+ km)
Ceiling: 2000 feet AGL
Clouds: few clouds at 1500 feet AGL
broken clouds at 2000 feet AGL
broken clouds at 2400 feet AGL
overcast cloud deck at 2900 feet AGL
Weather: no significant weather observed at this time

METAR text: EHEH 041313Z AUTO VRB04KT 9999 -SHRA FEW015CB SCT021 BKN031 14/12 Q0997 WHT 29007KT 9999 SCT020 BKN045 TEMPO 30010G20KT SCT015CB BKN040
Conditions at: EHEH (EINDHOVEN RNLAFB, NL) observed 1313 UTC 04 June 2020
Temperature: 14.0°C (57°F)
Dewpoint: 12.0°C (54°F) [RH = 88%]
Pressure (altimeter): 29.44 inches Hg (997.0 mb)
Winds: variable direction winds at 5 MPH (4 knots; 2.1 m/s)
Visibility: 6 or more miles (10+ km)
Ceiling: 3100 feet AGL
Clouds: few clouds at 1500 feet AGL
scattered clouds at 2100 feet AGL
broken clouds at 3100 feet AGL
scattered clouds at 2000 feet AGL
Weather: -SHRA  (light rain showers)

METAR text: EHEH 041308Z AUTO 28005KT 230V360 9999 -SHRA FEW015CB SCT026 BKN036 14/12 Q0997 BLU 29007KT 9999 SCT020 BKN040 TEMPO 32012G22KT SCT015CB BKN040
Conditions at: EHEH (EINDHOVEN RNLAFB, NL) observed 1308 UTC 04 June 2020
Temperature: 14.0°C (57°F)
Dewpoint: 12.0°C (54°F) [RH = 88%]
Pressure (altimeter): 29.44 inches Hg (997.0 mb)
Winds: from the W (280 degrees) at 6 MPH (5 knots; 2.6 m/s)
Visibility: 6 or more miles (10+ km)
Ceiling: 3600 feet AGL
Clouds: few clouds at 1500 feet AGL
scattered clouds at 2600 feet AGL
broken clouds at 3600 feet AGL
scattered clouds at 2000 feet AGL
Weather: -SHRA  (light rain showers)

METAR text: EHEH 041259Z AUTO 26004KT 220V290 9999 -RA FEW015CB SCT030 BKN035 14/13 Q0997 BLU 31007KT 9999 SCT020 BKN040 TEMPO 32012G22KT SCT015CB BKN040
Conditions at: EHEH (EINDHOVEN RNLAFB, NL) observed 1259 UTC 04 June 2020
Temperature: 14.0°C (57°F)
Dewpoint: 13.0°C (55°F) [RH = 94%]
Pressure (altimeter): 29.44 inches Hg (997.0 mb)
Winds: from the W (260 degrees) at 5 MPH (4 knots; 2.1 m/s)
Visibility: 6 or more miles (10+ km)
Ceiling: 3500 feet AGL
Clouds: few clouds at 1500 feet AGL
scattered clouds at 3000 feet AGL
broken clouds at 3500 feet AGL
scattered clouds at 2000 feet AGL
Weather: -RA  (light rain)

METAR text: EHEH 041255Z AUTO 25005KT 170V280 9999 -RA FEW015CB SCT022 BKN033 14/12 Q0997 WHT 31007KT 9999 SCT020 BKN040 TEMPO 32012G22KT SCT015CB BKN040
Conditions at: EHEH (EINDHOVEN RNLAFB, NL) observed 1255 UTC 04 June 2020
Temperature: 14.0°C (57°F)
Dewpoint: 12.0°C (54°F) [RH = 88%]
Pressure (altimeter): 29.44 inches Hg (997.0 mb)
Winds: from the WSW (250 degrees) at 6 MPH (5 knots; 2.6 m/s)
Visibility: 6 or more miles (10+ km)
Ceiling: 3300 feet AGL
Clouds: few clouds at 1500 feet AGL
scattered clouds at 2200 feet AGL
broken clouds at 3300 feet AGL
scattered clouds at 2000 feet AGL
Weather: -RA  (light rain)

METAR text: EHEH 041245Z AUTO 24005KT 200V300 9999 -RA FEW015CB BKN023 OVC046 14/12 Q0997 WHT 31007KT 9999 SCT020 BKN040 TEMPO 32012G22KT SCT015CB BKN040
Conditions at: EHEH (EINDHOVEN RNLAFB, NL) observed 1245 UTC 04 June 2020
Temperature: 14.0°C (57°F)
Dewpoint: 12.0°C (54°F) [RH = 88%]
Pressure (altimeter): 29.44 inches Hg (997.0 mb)
Winds: from the WSW (240 degrees) at 6 MPH (5 knots; 2.6 m/s)
Visibility: 6 or more miles (10+ km)
Ceiling: 2300 feet AGL
Clouds: few clouds at 1500 feet AGL
broken clouds at 2300 feet AGL
overcast cloud deck at 4600 feet AGL
scattered clouds at 2000 feet AGL
Weather: -RA  (light rain)

METAR text: EHEH 041244Z AUTO 25005KT 240V300 9999 -RA FEW015CB SCT023 OVC045 14/12 Q0997 WHT 31007KT 9999 SCT020 BKN040 TEMPO 32012G22KT SCT015CB BKN040
Conditions at: EHEH (EINDHOVEN RNLAFB, NL) observed 1244 UTC 04 June 2020
Temperature: 14.0°C (57°F)
Dewpoint: 12.0°C (54°F) [RH = 88%]
Pressure (altimeter): 29.44 inches Hg (997.0 mb)
Winds: from the WSW (250 degrees) at 6 MPH (5 knots; 2.6 m/s)
Visibility: 6 or more miles (10+ km)
Ceiling: 4500 feet AGL
Clouds: few clouds at 1500 feet AGL
scattered clouds at 2300 feet AGL
overcast cloud deck at 4500 feet AGL
scattered clouds at 2000 feet AGL
Weather: -RA  (light rain)

METAR text: EHEH 041238Z AUTO 26005KT 220V310 9999 -RA FEW015CB SCT037 BKN041 14/12 Q0997 BLU 31007KT 9999 SCT020 BKN040 TEMPO 32012G22KT SCT015CB BKN040
Conditions at: EHEH (EINDHOVEN RNLAFB, NL) observed 1238 UTC 04 June 2020
Temperature: 14.0°C (57°F)
Dewpoint: 12.0°C (54°F) [RH = 88%]
Pressure (altimeter): 29.44 inches Hg (997.0 mb)
Winds: from the W (260 degrees) at 6 MPH (5 knots; 2.6 m/s)
Visibility: 6 or more miles (10+ km)
Ceiling: 4100 feet AGL
Clouds: few clouds at 1500 feet AGL
scattered clouds at 3700 feet AGL
broken clouds at 4100 feet AGL
scattered clouds at 2000 feet AGL
Weather: -RA  (light rain)

METAR text: EHEH 041226Z AUTO 27005KT 210V300 9000 SHRA FEW009 FEW015CB SCT043 OVC047 14/12 Q0997 BLU 31008KT 9999 SCT020 BKN045 TEMPO 32012G22KT SCT015CB BKN040
Conditions at: EHEH (EINDHOVEN RNLAFB, NL) observed 1226 UTC 04 June 2020
Temperature: 14.0°C (57°F)
Dewpoint: 12.0°C (54°F) [RH = 88%]
Pressure (altimeter): 29.44 inches Hg (997.0 mb)
Winds: from the W (270 degrees) at 6 MPH (5 knots; 2.6 m/s)
Visibility: 6 or more miles (10+ km)
Ceiling: 4700 feet AGL
Clouds: few clouds at 900 feet AGL
few clouds at 1500 feet AGL
scattered clouds at 4300 feet AGL
overcast cloud deck at 4700 feet AGL
Weather: SHRA  (rain showers)

METAR text: EHEH 041225Z AUTO 25005KT 220V290 9000 SHRA FEW009 SCT015CB OVC047 14/12 Q0997 WHT 31008KT 9999 SCT020 BKN045 TEMPO 32012G22KT SCT015CB BKN040
Conditions at: EHEH (EINDHOVEN RNLAFB, NL) observed 1225 UTC 04 June 2020
Temperature: 14.0°C (57°F)
Dewpoint: 12.0°C (54°F) [RH = 88%]
Pressure (altimeter): 29.44 inches Hg (997.0 mb)
Winds: from the WSW (250 degrees) at 6 MPH (5 knots; 2.6 m/s)
Visibility: 6 or more miles (10+ km)
Ceiling: 4700 feet AGL
Clouds: few clouds at 900 feet AGL
scattered clouds at 1500 feet AGL
overcast cloud deck at 4700 feet AGL
scattered clouds at 2000 feet AGL
Weather: SHRA  (rain showers)

METAR text: EHEH 041222Z AUTO 25005KT 220V290 9000 SHRA FEW009 SCT015CB OVC047 14/12 Q0997 WHT 31008KT 9999 SCT020 BKN045 TEMPO 32012G22KT SCT015CB BKN040
Conditions at: EHEH (EINDHOVEN RNLAFB, NL) observed 1222 UTC 04 June 2020
Temperature: 14.0°C (57°F)
Dewpoint: 12.0°C (54°F) [RH = 88%]
Pressure (altimeter): 29.44 inches Hg (997.0 mb)
Winds: from the WSW (250 degrees) at 6 MPH (5 knots; 2.6 m/s)
Visibility: 6 or more miles (10+ km)
Ceiling: 4700 feet AGL
Clouds: few clouds at 900 feet AGL
scattered clouds at 1500 feet AGL
overcast cloud deck at 4700 feet AGL
scattered clouds at 2000 feet AGL
Weather: SHRA  (rain showers)

METAR text: EHEH 041216Z AUTO 25005KT 9999 -SHRA FEW009 SCT015CB BKN045 OVC050 14/12 Q0997 WHT 31008KT 9999 SCT020 BKN045 TEMPO 32012G22KT SCT015CB BKN040
Conditions at: EHEH (EINDHOVEN RNLAFB, NL) observed 1216 UTC 04 June 2020
Temperature: 14.0°C (57°F)
Dewpoint: 12.0°C (54°F) [RH = 88%]
Pressure (altimeter): 29.44 inches Hg (997.0 mb)
Winds: from the WSW (250 degrees) at 6 MPH (5 knots; 2.6 m/s)
Visibility: 6 or more miles (10+ km)
Ceiling: 4500 feet AGL
Clouds: few clouds at 900 feet AGL
scattered clouds at 1500 feet AGL
broken clouds at 4500 feet AGL
overcast cloud deck at 5000 feet AGL
Weather: -SHRA  (light rain showers)

METAR text: EHEH 041212Z AUTO 26005KT 230V300 9999 -SHRA FEW015CB BKN046 OVC052 14/12 Q0997 BLU 31008KT 9999 SCT020 BKN045 TEMPO 32012G22KT SCT015CB BKN040
Conditions at: EHEH (EINDHOVEN RNLAFB, NL) observed 1212 UTC 04 June 2020
Temperature: 14.0°C (57°F)
Dewpoint: 12.0°C (54°F) [RH = 88%]
Pressure (altimeter): 29.44 inches Hg (997.0 mb)
Winds: from the W (260 degrees) at 6 MPH (5 knots; 2.6 m/s)
Visibility: 6 or more miles (10+ km)
Ceiling: 4600 feet AGL
Clouds: few clouds at 1500 feet AGL
broken clouds at 4600 feet AGL
overcast cloud deck at 5200 feet AGL
scattered clouds at 2000 feet AGL
Weather: -SHRA  (light rain showers)

METAR text: EHEH 041155Z AUTO 27005KT 200V310 9999 -RA FEW008 FEW015CB BKN038 OVC043 14/12 Q0997 RERA REDZ BLU 32010KT 9999 SCT020 BKN030 TEMPO FEW008 SCT015CB BKN020
Conditions at: EHEH (EINDHOVEN RNLAFB, NL) observed 1155 UTC 04 June 2020
Temperature: 14.0°C (57°F)
Dewpoint: 12.0°C (54°F) [RH = 88%]
Pressure (altimeter): 29.44 inches Hg (997.0 mb)
Winds: from the W (270 degrees) at 6 MPH (5 knots; 2.6 m/s)
Visibility: 6 or more miles (10+ km)
Ceiling: 3800 feet AGL
Clouds: few clouds at 800 feet AGL
few clouds at 1500 feet AGL
broken clouds at 3800 feet AGL
overcast cloud deck at 4300 feet AGL
Weather: -RA  (light rain)

METAR text: EHEH 041146Z AUTO 26005KT 240V320 9999 -RA FEW008 SCT012 FEW015CB BKN036 14/12 Q0997 GRN 32010KT 9999 SCT020 BKN030 TEMPO FEW008 SCT015CB BKN020
Conditions at: EHEH (EINDHOVEN RNLAFB, NL) observed 1146 UTC 04 June 2020
Temperature: 14.0°C (57°F)
Dewpoint: 12.0°C (54°F) [RH = 88%]
Pressure (altimeter): 29.44 inches Hg (997.0 mb)
Winds: from the W (260 degrees) at 6 MPH (5 knots; 2.6 m/s)
Visibility: 6 or more miles (10+ km)
Ceiling: 3600 feet AGL
Clouds: few clouds at 800 feet AGL
scattered clouds at 1200 feet AGL
few clouds at 1500 feet AGL
broken clouds at 3600 feet AGL
Weather: -RA  (light rain)

METAR text: EHEH 041138Z AUTO 26005KT 240V330 9999 DZRA FEW012 FEW015CB SCT038 BKN050 14/12 Q0997 BLU 32010KT 9999 SCT020 BKN030 TEMPO SCT015CB BKN020
Conditions at: EHEH (EINDHOVEN RNLAFB, NL) observed 1138 UTC 04 June 2020
Temperature: 14.0°C (57°F)
Dewpoint: 12.0°C (54°F) [RH = 88%]
Pressure (altimeter): 29.44 inches Hg (997.0 mb)
Winds: from the W (260 degrees) at 6 MPH (5 knots; 2.6 m/s)
Visibility: 6 or more miles (10+ km)
Ceiling: 5000 feet AGL
Clouds: few clouds at 1200 feet AGL
few clouds at 1500 feet AGL
scattered clouds at 3800 feet AGL
broken clouds at 5000 feet AGL
Weather: DZ RA  (moderate drizzle, moderate rain)

METAR text: EHEH 041129Z AUTO 27005KT 220V330 9999 DZ FEW015CB BKN036 BKN040 14/12 Q0998 BLU 32010KT 9999 SCT020 BKN030 TEMPO SCT015CB BKN020
Conditions at: EHEH (EINDHOVEN RNLAFB, NL) observed 1129 UTC 04 June 2020
Temperature: 14.0°C (57°F)
Dewpoint: 12.0°C (54°F) [RH = 88%]
Pressure (altimeter): 29.47 inches Hg (998.0 mb)
Winds: from the W (270 degrees) at 6 MPH (5 knots; 2.6 m/s)
Visibility: 6 or more miles (10+ km)
Ceiling: 3600 feet AGL
Clouds: few clouds at 1500 feet AGL
broken clouds at 3600 feet AGL
broken clouds at 4000 feet AGL
scattered clouds at 2000 feet AGL
Weather: DZ  (moderate drizzle)

METAR text: EHEH 041125Z AUTO 28004KT 220V320 9999 DZ SCT015CB SCT016 OVC036 14/12 Q0998 WHT 32010KT 9999 SCT020 BKN030 TEMPO SCT015CB BKN020
Conditions at: EHEH (EINDHOVEN RNLAFB, NL) observed 1125 UTC 04 June 2020
Temperature: 14.0°C (57°F)
Dewpoint: 12.0°C (54°F) [RH = 88%]
Pressure (altimeter): 29.47 inches Hg (998.0 mb)
Winds: from the W (280 degrees) at 5 MPH (4 knots; 2.1 m/s)
Visibility: 6 or more miles (10+ km)
Ceiling: 3600 feet AGL
Clouds: scattered clouds at 1500 feet AGL
scattered clouds at 1600 feet AGL
overcast cloud deck at 3600 feet AGL
scattered clouds at 2000 feet AGL
Weather: DZ  (moderate drizzle)

METAR text: EHEH 041115Z AUTO 28004KT 240V320 9999 DZ FEW012 SCT015CB BKN016 OVC020 14/12 Q0998 WHT 32010KT 9999 SCT020 BKN030 TEMPO SCT015CB BKN020
Conditions at: EHEH (EINDHOVEN RNLAFB, NL) observed 1115 UTC 04 June 2020
Temperature: 14.0°C (57°F)
Dewpoint: 12.0°C (54°F) [RH = 88%]
Pressure (altimeter): 29.47 inches Hg (998.0 mb)
Winds: from the W (280 degrees) at 5 MPH (4 knots; 2.1 m/s)
Visibility: 6 or more miles (10+ km)
Ceiling: 1600 feet AGL
Clouds: few clouds at 1200 feet AGL
scattered clouds at 1500 feet AGL
broken clouds at 1600 feet AGL
overcast cloud deck at 2000 feet AGL
Weather: DZ  (moderate drizzle)

METAR text: EHEH 041109Z AUTO 29006KT 240V320 9999 DZRA SCT015CB BKN016 OVC019 14/11 Q0998 WHT 32010KT 9999 SCT020 BKN030 TEMPO SCT015CB BKN020
Conditions at: EHEH (EINDHOVEN RNLAFB, NL) observed 1109 UTC 04 June 2020
Temperature: 14.0°C (57°F)
Dewpoint: 11.0°C (52°F) [RH = 82%]
Pressure (altimeter): 29.47 inches Hg (998.0 mb)
Winds: from the WNW (290 degrees) at 7 MPH (6 knots; 3.1 m/s)
Visibility: 6 or more miles (10+ km)
Ceiling: 1600 feet AGL
Clouds: scattered clouds at 1500 feet AGL
broken clouds at 1600 feet AGL
overcast cloud deck at 1900 feet AGL
scattered clouds at 2000 feet AGL
Weather: DZ RA  (moderate drizzle, moderate rain)

METAR text: EHEH 041059Z AUTO 29007KT 240V330 9999 -RA SCT015CB BKN020 BKN024 OVC033 14/11 Q0998 WHT 32010KT 9999 SCT020 BKN030 TEMPO SCT018CB BKN030
Conditions at: EHEH (EINDHOVEN RNLAFB, NL) observed 1059 UTC 04 June 2020
Temperature: 14.0°C (57°F)
Dewpoint: 11.0°C (52°F) [RH = 82%]
Pressure (altimeter): 29.47 inches Hg (998.0 mb)
Winds: from the WNW (290 degrees) at 8 MPH (7 knots; 3.6 m/s)
Visibility: 6 or more miles (10+ km)
Ceiling: 2000 feet AGL
Clouds: scattered clouds at 1500 feet AGL
broken clouds at 2000 feet AGL
broken clouds at 2400 feet AGL
overcast cloud deck at 3300 feet AGL
Weather: -RA  (light rain)

METAR text: EHEH 041055Z AUTO 29006KT 240V050 9999 -SHRA SCT015CB SCT022 BKN032 14/11 Q0998 REDZ WHT 32010KT 9999 SCT020 BKN030 TEMPO SCT018CB BKN030
Conditions at: EHEH (EINDHOVEN RNLAFB, NL) observed 1055 UTC 04 June 2020
Temperature: 14.0°C (57°F)
Dewpoint: 11.0°C (52°F) [RH = 82%]
Pressure (altimeter): 29.47 inches Hg (998.0 mb)
Winds: from the WNW (290 degrees) at 7 MPH (6 knots; 3.1 m/s)
Visibility: 6 or more miles (10+ km)
Ceiling: 3200 feet AGL
Clouds: scattered clouds at 1500 feet AGL
scattered clouds at 2200 feet AGL
broken clouds at 3200 feet AGL
scattered clouds at 2000 feet AGL
Weather: -SHRA  (light rain showers)

METAR text: EHEH 041045Z AUTO 29006KT 240V360 9999 DZ SCT017CB SCT049 BKN055 14/10 Q0998 WHT 32010KT 9999 SCT020 BKN030 TEMPO SCT018CB BKN030
Conditions at: EHEH (EINDHOVEN RNLAFB, NL) observed 1045 UTC 04 June 2020
Temperature: 14.0°C (57°F)
Dewpoint: 10.0°C (50°F) [RH = 77%]
Pressure (altimeter): 29.47 inches Hg (998.0 mb)
Winds: from the WNW (290 degrees) at 7 MPH (6 knots; 3.1 m/s)
Visibility: 6 or more miles (10+ km)
Ceiling: 5500 feet AGL
Clouds: scattered clouds at 1700 feet AGL
scattered clouds at 4900 feet AGL
broken clouds at 5500 feet AGL
scattered clouds at 2000 feet AGL
Weather: DZ  (moderate drizzle)

METAR text: EHEH 041025Z AUTO 31007KT 240V010 9999 -RA FEW017CB OVC042 14/10 Q0998 BLU 32010KT 9999 SCT020 BKN030 TEMPO FEW018CB BKN030
Conditions at: EHEH (EINDHOVEN RNLAFB, NL) observed 1025 UTC 04 June 2020
Temperature: 14.0°C (57°F)
Dewpoint: 10.0°C (50°F) [RH = 77%]
Pressure (altimeter): 29.47 inches Hg (998.0 mb)
Winds: from the NW (310 degrees) at 8 MPH (7 knots; 3.6 m/s)
Visibility: 6 or more miles (10+ km)
Ceiling: 4200 feet AGL
Clouds: few clouds at 1700 feet AGL
overcast cloud deck at 4200 feet AGL
scattered clouds at 2000 feet AGL
broken clouds at 3000 feet AGL
Weather: -RA  (light rain)

METAR text: EHEH 040955Z AUTO 32008KT 250V350 9999 FEW021 OVC036 15/09 Q0998 BLU 32010KT 9999 SCT020 BKN030 TEMPO FEW018CB BKN030
Conditions at: EHEH (EINDHOVEN RNLAFB, NL) observed 0955 UTC 04 June 2020
Temperature: 15.0°C (59°F)
Dewpoint: 9.0°C (48°F) [RH = 67%]
Pressure (altimeter): 29.47 inches Hg (998.0 mb)
Winds: from the NW (320 degrees) at 9 MPH (8 knots; 4.1 m/s)
Visibility: 6 or more miles (10+ km)
Ceiling: 3600 feet AGL
Clouds: few clouds at 2100 feet AGL
overcast cloud deck at 3600 feet AGL
scattered clouds at 2000 feet AGL
broken clouds at 3000 feet AGL
Weather: no significant weather observed at this time

METAR text: EHEH 040930Z AUTO 33010KT 260V020 9999 FEW023 OVC031 14/09 Q0998 BLU 32010KT 9999 SCT020 BKN030 TEMPO FEW018CB BKN030
Conditions at: EHEH (EINDHOVEN RNLAFB, NL) observed 0930 UTC 04 June 2020
Temperature: 14.0°C (57°F)
Dewpoint: 9.0°C (48°F) [RH = 72%]
Pressure (altimeter): 29.47 inches Hg (998.0 mb)
Winds: from the NNW (330 degrees) at 12 MPH (10 knots; 5.1 m/s)
Visibility: 6 or more miles (10+ km)
Ceiling: 3100 feet AGL
Clouds: few clouds at 2300 feet AGL
overcast cloud deck at 3100 feet AGL
scattered clouds at 2000 feet AGL
broken clouds at 3000 feet AGL
Weather: no significant weather observed at this time

METAR text: EHEH 040925Z AUTO 32010KT 270V020 9999 SCT023 OVC031 14/09 Q0998 WHT 32010KT 9999 SCT020 BKN030 TEMPO FEW018CB BKN030
Conditions at: EHEH (EINDHOVEN RNLAFB, NL) observed 0925 UTC 04 June 2020
Temperature: 14.0°C (57°F)
Dewpoint: 9.0°C (48°F) [RH = 72%]
Pressure (altimeter): 29.47 inches Hg (998.0 mb)
Winds: from the NW (320 degrees) at 12 MPH (10 knots; 5.1 m/s)
Visibility: 6 or more miles (10+ km)
Ceiling: 3100 feet AGL
Clouds: scattered clouds at 2300 feet AGL
overcast cloud deck at 3100 feet AGL
scattered clouds at 2000 feet AGL
broken clouds at 3000 feet AGL
Weather: no significant weather observed at this time

METAR text: EHEH 040900Z AUTO 32010KT 260V050 9999 FEW023 OVC027 15/09 Q0998 BLU 32010KT 9999 SCT020 BKN030 TEMPO FEW018CB BKN030
Conditions at: EHEH (EINDHOVEN RNLAFB, NL) observed 0900 UTC 04 June 2020
Temperature: 15.0°C (59°F)
Dewpoint: 9.0°C (48°F) [RH = 67%]
Pressure (altimeter): 29.47 inches Hg (998.0 mb)
Winds: from the NW (320 degrees) at 12 MPH (10 knots; 5.1 m/s)
Visibility: 6 or more miles (10+ km)
Ceiling: 2700 feet AGL
Clouds: few clouds at 2300 feet AGL
overcast cloud deck at 2700 feet AGL
scattered clouds at 2000 feet AGL
broken clouds at 3000 feet AGL
Weather: no significant weather observed at this time

METAR text: EHEH 040855Z AUTO 32012KT 270V050 9999 BKN022 OVC026 14/09 Q0998 WHT 32010KT 9999 SCT020 BKN030
Conditions at: EHEH (EINDHOVEN RNLAFB, NL) observed 0855 UTC 04 June 2020
Temperature: 14.0°C (57°F)
Dewpoint: 9.0°C (48°F) [RH = 72%]
Pressure (altimeter): 29.47 inches Hg (998.0 mb)
Winds: from the NW (320 degrees) at 14 MPH (12 knots; 6.2 m/s)
Visibility: 6 or more miles (10+ km)
Ceiling: 2200 feet AGL
Clouds: broken clouds at 2200 feet AGL
overcast cloud deck at 2600 feet AGL
scattered clouds at 2000 feet AGL
broken clouds at 3000 feet AGL
Weather: no significant weather observed at this time

METAR text: EHEH 040825Z AUTO 32010KT 250V030 9999 BKN015 OVC018 15/10 Q0998 WHT 32008KT 9999 SCT015 BKN020
Conditions at: EHEH (EINDHOVEN RNLAFB, NL) observed 0825 UTC 04 June 2020
Temperature: 15.0°C (59°F)
Dewpoint: 10.0°C (50°F) [RH = 72%]
Pressure (altimeter): 29.47 inches Hg (998.0 mb)
Winds: from the NW (320 degrees) at 12 MPH (10 knots; 5.1 m/s)
Visibility: 6 or more miles (10+ km)
Ceiling: 1500 feet AGL
Clouds: broken clouds at 1500 feet AGL
overcast cloud deck at 1800 feet AGL
scattered clouds at 1500 feet AGL
broken clouds at 2000 feet AGL
Weather: no significant weather observed at this time

METAR text: EHEH 040809Z AUTO 33011KT 260V010 9999 OVC015 14/10 Q0998 WHT 32008KT 9999 SCT015 BKN020
Conditions at: EHEH (EINDHOVEN RNLAFB, NL) observed 0809 UTC 04 June 2020
Temperature: 14.0°C (57°F)
Dewpoint: 10.0°C (50°F) [RH = 77%]
Pressure (altimeter): 29.47 inches Hg (998.0 mb)
Winds: from the NNW (330 degrees) at 13 MPH (11 knots; 5.7 m/s)
Visibility: 6 or more miles (10+ km)
Ceiling: 1500 feet AGL
Clouds: overcast cloud deck at 1500 feet AGL
scattered clouds at 1500 feet AGL
broken clouds at 2000 feet AGL
Weather: no significant weather observed at this time

METAR text: EHEH 040755Z AUTO 32009KT 230V020 9999 BKN014 OVC017 14/11 Q0998 GRN 32008KT 9999 SCT015 BKN020
Conditions at: EHEH (EINDHOVEN RNLAFB, NL) observed 0755 UTC 04 June 2020
Temperature: 14.0°C (57°F)
Dewpoint: 11.0°C (52°F) [RH = 82%]
Pressure (altimeter): 29.47 inches Hg (998.0 mb)
Winds: from the NW (320 degrees) at 10 MPH (9 knots; 4.6 m/s)
Visibility: 6 or more miles (10+ km)
Ceiling: 1400 feet AGL
Clouds: broken clouds at 1400 feet AGL
overcast cloud deck at 1700 feet AGL
scattered clouds at 1500 feet AGL
broken clouds at 2000 feet AGL
Weather: no significant weather observed at this time

METAR text: EHEH 040747Z AUTO 31008KT 260V020 9999 BKN014 OVC017 14/11 Q0998 GRN 32008KT 9999 SCT015 BKN020
Conditions at: EHEH (EINDHOVEN RNLAFB, NL) observed 0747 UTC 04 June 2020
Temperature: 14.0°C (57°F)
Dewpoint: 11.0°C (52°F) [RH = 82%]
Pressure (altimeter): 29.47 inches Hg (998.0 mb)
Winds: from the NW (310 degrees) at 9 MPH (8 knots; 4.1 m/s)
Visibility: 6 or more miles (10+ km)
Ceiling: 1400 feet AGL
Clouds: broken clouds at 1400 feet AGL
overcast cloud deck at 1700 feet AGL
scattered clouds at 1500 feet AGL
broken clouds at 2000 feet AGL
Weather: no significant weather observed at this time

METAR text: EHEH 040743Z AUTO 32008KT 260V020 9999 SCT014 OVC016 14/11 Q0998 GRN 32008KT 9999 SCT015 BKN020
Conditions at: EHEH (EINDHOVEN RNLAFB, NL) observed 0743 UTC 04 June 2020
Temperature: 14.0°C (57°F)
Dewpoint: 11.0°C (52°F) [RH = 82%]
Pressure (altimeter): 29.47 inches Hg (998.0 mb)
Winds: from the NW (320 degrees) at 9 MPH (8 knots; 4.1 m/s)
Visibility: 6 or more miles (10+ km)
Ceiling: 1600 feet AGL
Clouds: scattered clouds at 1400 feet AGL
overcast cloud deck at 1600 feet AGL
scattered clouds at 1500 feet AGL
broken clouds at 2000 feet AGL
Weather: no significant weather observed at this time

METAR text: EHEH 040736Z AUTO 32009KT 260V010 9999 FEW013 OVC017 14/11 Q0998 WHT 32008KT 9999 SCT010 BKN015
Conditions at: EHEH (EINDHOVEN RNLAFB, NL) observed 0736 UTC 04 June 2020
Temperature: 14.0°C (57°F)
Dewpoint: 11.0°C (52°F) [RH = 82%]
Pressure (altimeter): 29.47 inches Hg (998.0 mb)
Winds: from the NW (320 degrees) at 10 MPH (9 knots; 4.6 m/s)
Visibility: 6 or more miles (10+ km)
Ceiling: 1700 feet AGL
Clouds: few clouds at 1300 feet AGL
overcast cloud deck at 1700 feet AGL
scattered clouds at 1000 feet AGL
broken clouds at 1500 feet AGL
Weather: no significant weather observed at this time

METAR text: EHEH 040725Z AUTO 32008KT 240V020 9999 BKN011 BKN014 OVC016 14/11 Q0998 GRN 32008KT 9999 SCT010 BKN015
Conditions at: EHEH (EINDHOVEN RNLAFB, NL) observed 0725 UTC 04 June 2020
Temperature: 14.0°C (57°F)
Dewpoint: 11.0°C (52°F) [RH = 82%]
Pressure (altimeter): 29.47 inches Hg (998.0 mb)
Winds: from the NW (320 degrees) at 9 MPH (8 knots; 4.1 m/s)
Visibility: 6 or more miles (10+ km)
Ceiling: 1100 feet AGL
Clouds: broken clouds at 1100 feet AGL
broken clouds at 1400 feet AGL
overcast cloud deck at 1600 feet AGL
scattered clouds at 1000 feet AGL
Weather: no significant weather observed at this time

METAR text: EHEH 040711Z AUTO 32009KT 250V020 9999 SCT011 BKN014 OVC017 14/11 Q0998 GRN 32008KT 9999 SCT010 BKN015
Conditions at: EHEH (EINDHOVEN RNLAFB, NL) observed 0711 UTC 04 June 2020
Temperature: 14.0°C (57°F)
Dewpoint: 11.0°C (52°F) [RH = 82%]
Pressure (altimeter): 29.47 inches Hg (998.0 mb)
Winds: from the NW (320 degrees) at 10 MPH (9 knots; 4.6 m/s)
Visibility: 6 or more miles (10+ km)
Ceiling: 1400 feet AGL
Clouds: scattered clouds at 1100 feet AGL
broken clouds at 1400 feet AGL
overcast cloud deck at 1700 feet AGL
scattered clouds at 1000 feet AGL
Weather: no significant weather observed at this time

METAR text: EHEH 040707Z AUTO 32010KT 250V010 9999 FEW010 SCT012 BKN016 14/11 Q0998 GRN 32008KT 9999 SCT010 BKN015
Conditions at: EHEH (EINDHOVEN RNLAFB, NL) observed 0707 UTC 04 June 2020
Temperature: 14.0°C (57°F)
Dewpoint: 11.0°C (52°F) [RH = 82%]
Pressure (altimeter): 29.47 inches Hg (998.0 mb)
Winds: from the NW (320 degrees) at 12 MPH (10 knots; 5.1 m/s)
Visibility: 6 or more miles (10+ km)
Ceiling: 1600 feet AGL
Clouds: few clouds at 1000 feet AGL
scattered clouds at 1200 feet AGL
broken clouds at 1600 feet AGL
scattered clouds at 1000 feet AGL
Weather: no significant weather observed at this time

METAR text: EHEH 040656Z AUTO 32009KT 270V020 9999 FEW010 BKN016 OVC019 14/11 Q0998 WHT 32008KT 9999 SCT010 BKN015
Conditions at: EHEH (EINDHOVEN RNLAFB, NL) observed 0656 UTC 04 June 2020
Temperature: 14.0°C (57°F)
Dewpoint: 11.0°C (52°F) [RH = 82%]
Pressure (altimeter): 29.47 inches Hg (998.0 mb)
Winds: from the NW (320 degrees) at 10 MPH (9 knots; 4.6 m/s)
Visibility: 6 or more miles (10+ km)
Ceiling: 1600 feet AGL
Clouds: few clouds at 1000 feet AGL
broken clouds at 1600 feet AGL
overcast cloud deck at 1900 feet AGL
scattered clouds at 1000 feet AGL
Weather: no significant weather observed at this time

METAR text: EHEH 040655Z AUTO 32009KT 270V020 9999 FEW011 SCT013 BKN016 14/11 Q0998 GRN 32008KT 9999 SCT010 BKN015
Conditions at: EHEH (EINDHOVEN RNLAFB, NL) observed 0655 UTC 04 June 2020
Temperature: 14.0°C (57°F)
Dewpoint: 11.0°C (52°F) [RH = 82%]
Pressure (altimeter): 29.47 inches Hg (998.0 mb)
Winds: from the NW (320 degrees) at 10 MPH (9 knots; 4.6 m/s)
Visibility: 6 or more miles (10+ km)
Ceiling: 1600 feet AGL
Clouds: few clouds at 1100 feet AGL
scattered clouds at 1300 feet AGL
broken clouds at 1600 feet AGL
scattered clouds at 1000 feet AGL
Weather: no significant weather observed at this time

METAR text: EHEH 040625Z AUTO 31008KT 220V010 9999 OVC012 14/11 Q0998 GRN 32008KT 9999 SCT010 BKN015
Conditions at: EHEH (EINDHOVEN RNLAFB, NL) observed 0625 UTC 04 June 2020
Temperature: 14.0°C (57°F)
Dewpoint: 11.0°C (52°F) [RH = 82%]
Pressure (altimeter): 29.47 inches Hg (998.0 mb)
Winds: from the NW (310 degrees) at 9 MPH (8 knots; 4.1 m/s)
Visibility: 6 or more miles (10+ km)
Ceiling: 1200 feet AGL
Clouds: overcast cloud deck at 1200 feet AGL
scattered clouds at 1000 feet AGL
broken clouds at 1500 feet AGL
Weather: no significant weather observed at this time

METAR text: EHEH 040618Z AUTO 32009KT 260V010 9999 BKN012 OVC018 14/11 Q0998 GRN 32008KT 9999 SCT010 BKN015
Conditions at: EHEH (EINDHOVEN RNLAFB, NL) observed 0618 UTC 04 June 2020
Temperature: 14.0°C (57°F)
Dewpoint: 11.0°C (52°F) [RH = 82%]
Pressure (altimeter): 29.47 inches Hg (998.0 mb)
Winds: from the NW (320 degrees) at 10 MPH (9 knots; 4.6 m/s)
Visibility: 6 or more miles (10+ km)
Ceiling: 1200 feet AGL
Clouds: broken clouds at 1200 feet AGL
overcast cloud deck at 1800 feet AGL
scattered clouds at 1000 feet AGL
broken clouds at 1500 feet AGL
Weather: no significant weather observed at this time

METAR text: EHEH 040614Z AUTO 31010KT 260V010 9999 SCT012 OVC016 14/11 Q0998 GRN 32008KT 9999 SCT010 BKN015
Conditions at: EHEH (EINDHOVEN RNLAFB, NL) observed 0614 UTC 04 June 2020
Temperature: 14.0°C (57°F)
Dewpoint: 11.0°C (52°F) [RH = 82%]
Pressure (altimeter): 29.47 inches Hg (998.0 mb)
Winds: from the NW (310 degrees) at 12 MPH (10 knots; 5.1 m/s)
Visibility: 6 or more miles (10+ km)
Ceiling: 1600 feet AGL
Clouds: scattered clouds at 1200 feet AGL
overcast cloud deck at 1600 feet AGL
scattered clouds at 1000 feet AGL
broken clouds at 1500 feet AGL
Weather: no significant weather observed at this time

METAR text: EHEH 040606Z AUTO 32009KT 250V360 9999 FEW012 OVC016 14/11 Q0998 WHT 32008KT 9999 SCT010 BKN015
Conditions at: EHEH (EINDHOVEN RNLAFB, NL) observed 0606 UTC 04 June 2020
Temperature: 14.0°C (57°F)
Dewpoint: 11.0°C (52°F) [RH = 82%]
Pressure (altimeter): 29.47 inches Hg (998.0 mb)
Winds: from the NW (320 degrees) at 10 MPH (9 knots; 4.6 m/s)
Visibility: 6 or more miles (10+ km)
Ceiling: 1600 feet AGL
Clouds: few clouds at 1200 feet AGL
overcast cloud deck at 1600 feet AGL
scattered clouds at 1000 feet AGL
broken clouds at 1500 feet AGL
Weather: no significant weather observed at this time

METAR text: EHEH 040556Z AUTO 31009KT 260V020 9999 SCT011 OVC017 14/11 Q0998 GRN 32008KT 9999 SCT010 BKN015
Conditions at: EHEH (EINDHOVEN RNLAFB, NL) observed 0556 UTC 04 June 2020
Temperature: 14.0°C (57°F)
Dewpoint: 11.0°C (52°F) [RH = 82%]
Pressure (altimeter): 29.47 inches Hg (998.0 mb)
Winds: from the NW (310 degrees) at 10 MPH (9 knots; 4.6 m/s)
Visibility: 6 or more miles (10+ km)
Ceiling: 1700 feet AGL
Clouds: scattered clouds at 1100 feet AGL
overcast cloud deck at 1700 feet AGL
scattered clouds at 1000 feet AGL
broken clouds at 1500 feet AGL
Weather: no significant weather observed at this time

METAR text: EHEH 040555Z AUTO 32009KT 260V010 9999 FEW011 OVC017 14/11 Q0998 WHT 32008KT 9999 SCT010 BKN015
Conditions at: EHEH (EINDHOVEN RNLAFB, NL) observed 0555 UTC 04 June 2020
Temperature: 14.0°C (57°F)
Dewpoint: 11.0°C (52°F) [RH = 82%]
Pressure (altimeter): 29.47 inches Hg (998.0 mb)
Winds: from the NW (320 degrees) at 10 MPH (9 knots; 4.6 m/s)
Visibility: 6 or more miles (10+ km)
Ceiling: 1700 feet AGL
Clouds: few clouds at 1100 feet AGL
overcast cloud deck at 1700 feet AGL
scattered clouds at 1000 feet AGL
broken clouds at 1500 feet AGL
Weather: no significant weather observed at this time

METAR text: EHEH 040535Z AUTO 31008KT 270V010 9999 FEW011 BKN017 OVC020 14/11 Q0998 WHT 32007KT 9999 SCT010 BKN014 TEMPO BKN008
Conditions at: EHEH (EINDHOVEN RNLAFB, NL) observed 0535 UTC 04 June 2020
Temperature: 14.0°C (57°F)
Dewpoint: 11.0°C (52°F) [RH = 82%]
Pressure (altimeter): 29.47 inches Hg (998.0 mb)
Winds: from the NW (310 degrees) at 9 MPH (8 knots; 4.1 m/s)
Visibility: 6 or more miles (10+ km)
Ceiling: 1700 feet AGL
Clouds: few clouds at 1100 feet AGL
broken clouds at 1700 feet AGL
overcast cloud deck at 2000 feet AGL
scattered clouds at 1000 feet AGL
Weather: no significant weather observed at this time

METAR text: EHEH 040534Z AUTO 31008KT 260V360 9999 SCT011 OVC016 14/11 Q0998 GRN 32007KT 9999 SCT010 BKN014 TEMPO BKN008
Conditions at: EHEH (EINDHOVEN RNLAFB, NL) observed 0534 UTC 04 June 2020
Temperature: 14.0°C (57°F)
Dewpoint: 11.0°C (52°F) [RH = 82%]
Pressure (altimeter): 29.47 inches Hg (998.0 mb)
Winds: from the NW (310 degrees) at 9 MPH (8 knots; 4.1 m/s)
Visibility: 6 or more miles (10+ km)
Ceiling: 1600 feet AGL
Clouds: scattered clouds at 1100 feet AGL
overcast cloud deck at 1600 feet AGL
scattered clouds at 1000 feet AGL
broken clouds at 1400 feet AGL
Weather: no significant weather observed at this time

METAR text: EHEH 040530Z AUTO 31008KT 260V360 9999 FEW011 OVC017 14/11 Q0998 WHT 32007KT 9999 SCT010 BKN014 TEMPO BKN008
Conditions at: EHEH (EINDHOVEN RNLAFB, NL) observed 0530 UTC 04 June 2020
Temperature: 14.0°C (57°F)
Dewpoint: 11.0°C (52°F) [RH = 82%]
Pressure (altimeter): 29.47 inches Hg (998.0 mb)
Winds: from the NW (310 degrees) at 9 MPH (8 knots; 4.1 m/s)
Visibility: 6 or more miles (10+ km)
Ceiling: 1700 feet AGL
Clouds: few clouds at 1100 feet AGL
overcast cloud deck at 1700 feet AGL
scattered clouds at 1000 feet AGL
broken clouds at 1400 feet AGL
Weather: no significant weather observed at this time

METAR text: EHEH 040525Z AUTO 31008KT 260V360 9999 BKN011 OVC018 14/11 Q0998 GRN 32007KT 9999 SCT010 BKN014 TEMPO BKN008
Conditions at: EHEH (EINDHOVEN RNLAFB, NL) observed 0525 UTC 04 June 2020
Temperature: 14.0°C (57°F)
Dewpoint: 11.0°C (52°F) [RH = 82%]
Pressure (altimeter): 29.47 inches Hg (998.0 mb)
Winds: from the NW (310 degrees) at 9 MPH (8 knots; 4.1 m/s)
Visibility: 6 or more miles (10+ km)
Ceiling: 1100 feet AGL
Clouds: broken clouds at 1100 feet AGL
overcast cloud deck at 1800 feet AGL
scattered clouds at 1000 feet AGL
broken clouds at 1400 feet AGL
Weather: no significant weather observed at this time

METAR text: EHEH 040459Z AUTO 30007KT 260V350 9999 SCT011 BKN014 OVC020 14/11 Q0998 GRN 32007KT 9999 SCT010 BKN014 TEMPO BKN008
Conditions at: EHEH (EINDHOVEN RNLAFB, NL) observed 0459 UTC 04 June 2020
Temperature: 14.0°C (57°F)
Dewpoint: 11.0°C (52°F) [RH = 82%]
Pressure (altimeter): 29.47 inches Hg (998.0 mb)
Winds: from the WNW (300 degrees) at 8 MPH (7 knots; 3.6 m/s)
Visibility: 6 or more miles (10+ km)
Ceiling: 1400 feet AGL
Clouds: scattered clouds at 1100 feet AGL
broken clouds at 1400 feet AGL
overcast cloud deck at 2000 feet AGL
scattered clouds at 1000 feet AGL
Weather: no significant weather observed at this time

METAR text: EHEH 040455Z AUTO 30007KT 260V350 9999 SCT011 BKN015 OVC019 14/11 Q0998 GRN 32007KT 9999 SCT010 BKN014 TEMPO BKN008
Conditions at: EHEH (EINDHOVEN RNLAFB, NL) observed 0455 UTC 04 June 2020
Temperature: 14.0°C (57°F)
Dewpoint: 11.0°C (52°F) [RH = 82%]
Pressure (altimeter): 29.47 inches Hg (998.0 mb)
Winds: from the WNW (300 degrees) at 8 MPH (7 knots; 3.6 m/s)
Visibility: 6 or more miles (10+ km)
Ceiling: 1500 feet AGL
Clouds: scattered clouds at 1100 feet AGL
broken clouds at 1500 feet AGL
overcast cloud deck at 1900 feet AGL
scattered clouds at 1000 feet AGL
Weather: no significant weather observed at this time

METAR text: EHEH 040425Z AUTO 31006KT 260V010 9999 SCT010 BKN013 OVC019 14/11 Q0998 GRN 32007KT 9999 SCT010 BKN014 TEMPO BKN008
Conditions at: EHEH (EINDHOVEN RNLAFB, NL) observed 0425 UTC 04 June 2020
Temperature: 14.0°C (57°F)
Dewpoint: 11.0°C (52°F) [RH = 82%]
Pressure (altimeter): 29.47 inches Hg (998.0 mb)
Winds: from the NW (310 degrees) at 7 MPH (6 knots; 3.1 m/s)
Visibility: 6 or more miles (10+ km)
Ceiling: 1300 feet AGL
Clouds: scattered clouds at 1000 feet AGL
broken clouds at 1300 feet AGL
overcast cloud deck at 1900 feet AGL
scattered clouds at 1000 feet AGL
Weather: no significant weather observed at this time

METAR text: EHEH 040359Z AUTO 30005KT 250V360 9999 BKN011 OVC044 14/11 Q0998 GRN
Conditions at: EHEH (EINDHOVEN RNLAFB, NL) observed 0359 UTC 04 June 2020
Temperature: 14.0°C (57°F)
Dewpoint: 11.0°C (52°F) [RH = 82%]
Pressure (altimeter): 29.47 inches Hg (998.0 mb)
Winds: from the WNW (300 degrees) at 6 MPH (5 knots; 2.6 m/s)
Visibility: 6 or more miles (10+ km)
Ceiling: 1100 feet AGL
Clouds: broken clouds at 1100 feet AGL
overcast cloud deck at 4400 feet AGL
Weather: no significant weather observed at this time

METAR text: EHEH 040355Z AUTO 30005KT 240V360 9999 FEW011 OVC045 14/11 Q0998 BLU
Conditions at: EHEH (EINDHOVEN RNLAFB, NL) observed 0355 UTC 04 June 2020
Temperature: 14.0°C (57°F)
Dewpoint: 11.0°C (52°F) [RH = 82%]
Pressure (altimeter): 29.47 inches Hg (998.0 mb)
Winds: from the WNW (300 degrees) at 6 MPH (5 knots; 2.6 m/s)
Visibility: 6 or more miles (10+ km)
Ceiling: 4500 feet AGL
Clouds: few clouds at 1100 feet AGL
overcast cloud deck at 4500 feet AGL
Weather: no significant weather observed at this time

METAR text: EHEH 040344Z AUTO 30006KT 240V350 9999 BKN045 OVC053 14/11 Q0998 BLU
Conditions at: EHEH (EINDHOVEN RNLAFB, NL) observed 0344 UTC 04 June 2020
Temperature: 14.0°C (57°F)
Dewpoint: 11.0°C (52°F) [RH = 82%]
Pressure (altimeter): 29.47 inches Hg (998.0 mb)
Winds: from the WNW (300 degrees) at 7 MPH (6 knots; 3.1 m/s)
Visibility: 6 or more miles (10+ km)
Ceiling: 4500 feet AGL
Clouds: broken clouds at 4500 feet AGL
overcast cloud deck at 5300 feet AGL
Weather: no significant weather observed at this time

METAR text: EHEH 040340Z AUTO 30005KT 240V360 9999 FEW012 SCT022 BKN046 14/11 Q0998 WHT
Conditions at: EHEH (EINDHOVEN RNLAFB, NL) observed 0340 UTC 04 June 2020
Temperature: 14.0°C (57°F)
Dewpoint: 11.0°C (52°F) [RH = 82%]
Pressure (altimeter): 29.47 inches Hg (998.0 mb)
Winds: from the WNW (300 degrees) at 6 MPH (5 knots; 2.6 m/s)
Visibility: 6 or more miles (10+ km)
Ceiling: 4600 feet AGL
Clouds: few clouds at 1200 feet AGL
scattered clouds at 2200 feet AGL
broken clouds at 4600 feet AGL
Weather: no significant weather observed at this time

METAR text: EHEH 040325Z AUTO 30006KT 250V350 9999 SCT016 BKN020 OVC023 14/11 Q0998 WHT
Conditions at: EHEH (EINDHOVEN RNLAFB, NL) observed 0325 UTC 04 June 2020
Temperature: 14.0°C (57°F)
Dewpoint: 11.0°C (52°F) [RH = 82%]
Pressure (altimeter): 29.47 inches Hg (998.0 mb)
Winds: from the WNW (300 degrees) at 7 MPH (6 knots; 3.1 m/s)
Visibility: 6 or more miles (10+ km)
Ceiling: 2000 feet AGL
Clouds: scattered clouds at 1600 feet AGL
broken clouds at 2000 feet AGL
overcast cloud deck at 2300 feet AGL
Weather: no significant weather observed at this time

METAR text: EHEH 040317Z AUTO 31006KT 250V360 9999 FEW012 BKN015 OVC019 14/11 Q0998 WHT
Conditions at: EHEH (EINDHOVEN RNLAFB, NL) observed 0317 UTC 04 June 2020
Temperature: 14.0°C (57°F)
Dewpoint: 11.0°C (52°F) [RH = 82%]
Pressure (altimeter): 29.47 inches Hg (998.0 mb)
Winds: from the NW (310 degrees) at 7 MPH (6 knots; 3.1 m/s)
Visibility: 6 or more miles (10+ km)
Ceiling: 1500 feet AGL
Clouds: few clouds at 1200 feet AGL
broken clouds at 1500 feet AGL
overcast cloud deck at 1900 feet AGL
Weather: no significant weather observed at this time

METAR text: EHEH 040312Z AUTO 32006KT 250V010 9999 FEW012 SCT014 OVC017 14/12 Q0998 GRN
Conditions at: EHEH (EINDHOVEN RNLAFB, NL) observed 0312 UTC 04 June 2020
Temperature: 14.0°C (57°F)
Dewpoint: 12.0°C (54°F) [RH = 88%]
Pressure (altimeter): 29.47 inches Hg (998.0 mb)
Winds: from the NW (320 degrees) at 7 MPH (6 knots; 3.1 m/s)
Visibility: 6 or more miles (10+ km)
Ceiling: 1700 feet AGL
Clouds: few clouds at 1200 feet AGL
scattered clouds at 1400 feet AGL
overcast cloud deck at 1700 feet AGL
Weather: no significant weather observed at this time

METAR text: EHEH 040255Z AUTO 31005KT 260V360 9999 FEW014 BKN016 OVC019 14/11 Q0999 WHT
Conditions at: EHEH (EINDHOVEN RNLAFB, NL) observed 0255 UTC 04 June 2020
Temperature: 14.0°C (57°F)
Dewpoint: 11.0°C (52°F) [RH = 82%]
Pressure (altimeter): 29.50 inches Hg (999.0 mb)
Winds: from the NW (310 degrees) at 6 MPH (5 knots; 2.6 m/s)
Visibility: 6 or more miles (10+ km)
Ceiling: 1600 feet AGL
Clouds: few clouds at 1400 feet AGL
broken clouds at 1600 feet AGL
overcast cloud deck at 1900 feet AGL
Weather: no significant weather observed at this time

METAR text: EHEH 040225Z AUTO 32006KT 270V020 9999 OVC020 14/11 Q0999 WHT
Conditions at: EHEH (EINDHOVEN RNLAFB, NL) observed 0225 UTC 04 June 2020
Temperature: 14.0°C (57°F)
Dewpoint: 11.0°C (52°F) [RH = 82%]
Pressure (altimeter): 29.50 inches Hg (999.0 mb)
Winds: from the NW (320 degrees) at 7 MPH (6 knots; 3.1 m/s)
Visibility: 6 or more miles (10+ km)
Ceiling: 2000 feet AGL
Clouds: overcast cloud deck at 2000 feet AGL
Weather: no significant weather observed at this time

METAR text: EHEH 040155Z AUTO 32007KT 260V010 9999 OVC024 14/11 Q0999 WHT
Conditions at: EHEH (EINDHOVEN RNLAFB, NL) observed 0155 UTC 04 June 2020
Temperature: 14.0°C (57°F)
Dewpoint: 11.0°C (52°F) [RH = 82%]
Pressure (altimeter): 29.50 inches Hg (999.0 mb)
Winds: from the NW (320 degrees) at 8 MPH (7 knots; 3.6 m/s)
Visibility: 6 or more miles (10+ km)
Ceiling: 2400 feet AGL
Clouds: overcast cloud deck at 2400 feet AGL
Weather: no significant weather observed at this time

METAR text: EHEH 040125Z AUTO 32008KT 280V030 9999 OVC023 15/12 Q0999 WHT
Conditions at: EHEH (EINDHOVEN RNLAFB, NL) observed 0125 UTC 04 June 2020
Temperature: 15.0°C (59°F)
Dewpoint: 12.0°C (54°F) [RH = 82%]
Pressure (altimeter): 29.50 inches Hg (999.0 mb)
Winds: from the NW (320 degrees) at 9 MPH (8 knots; 4.1 m/s)
Visibility: 6 or more miles (10+ km)
Ceiling: 2300 feet AGL
Clouds: overcast cloud deck at 2300 feet AGL
Weather: no significant weather observed at this time

METAR text: EHEH 040055Z AUTO 32007KT 270V010 9999 OVC022 15/12 Q1000 WHT
Conditions at: EHEH (EINDHOVEN RNLAFB, NL) observed 0055 UTC 04 June 2020
Temperature: 15.0°C (59°F)
Dewpoint: 12.0°C (54°F) [RH = 82%]
Pressure (altimeter): 29.53 inches Hg (1000.0 mb)
Winds: from the NW (320 degrees) at 8 MPH (7 knots; 3.6 m/s)
Visibility: 6 or more miles (10+ km)
Ceiling: 2200 feet AGL
Clouds: overcast cloud deck at 2200 feet AGL
Weather: no significant weather observed at this time

METAR text: EHEH 040039Z AUTO 32006KT 250V010 9999 BKN023 OVC026 15/12 Q1000 WHT
Conditions at: EHEH (EINDHOVEN RNLAFB, NL) observed 0039 UTC 04 June 2020
Temperature: 15.0°C (59°F)
Dewpoint: 12.0°C (54°F) [RH = 82%]
Pressure (altimeter): 29.53 inches Hg (1000.0 mb)
Winds: from the NW (320 degrees) at 7 MPH (6 knots; 3.1 m/s)
Visibility: 6 or more miles (10+ km)
Ceiling: 2300 feet AGL
Clouds: broken clouds at 2300 feet AGL
overcast cloud deck at 2600 feet AGL
Weather: no significant weather observed at this time

METAR text: EHEH 040038Z AUTO 31005KT 250V020 9999 FEW014 OVC025 15/12 Q1000 BLU
Conditions at: EHEH (EINDHOVEN RNLAFB, NL) observed 0038 UTC 04 June 2020
Temperature: 15.0°C (59°F)
Dewpoint: 12.0°C (54°F) [RH = 82%]
Pressure (altimeter): 29.53 inches Hg (1000.0 mb)
Winds: from the NW (310 degrees) at 6 MPH (5 knots; 2.6 m/s)
Visibility: 6 or more miles (10+ km)
Ceiling: 2500 feet AGL
Clouds: few clouds at 1400 feet AGL
overcast cloud deck at 2500 feet AGL
Weather: no significant weather observed at this time

METAR text: EHEH 040028Z AUTO 30004KT 240V020 9999 FEW014 OVC025 15/12 Q1000 BLU
Conditions at: EHEH (EINDHOVEN RNLAFB, NL) observed 0028 UTC 04 June 2020
Temperature: 15.0°C (59°F)
Dewpoint: 12.0°C (54°F) [RH = 82%]
Pressure (altimeter): 29.53 inches Hg (1000.0 mb)
Winds: from the WNW (300 degrees) at 5 MPH (4 knots; 2.1 m/s)
Visibility: 6 or more miles (10+ km)
Ceiling: 2500 feet AGL
Clouds: few clouds at 1400 feet AGL
overcast cloud deck at 2500 feet AGL
Weather: no significant weather observed at this time

METAR text: EHEH 040025Z AUTO 29004KT 240V360 9999 OVC024 15/12 Q1000 WHT
Conditions at: EHEH (EINDHOVEN RNLAFB, NL) observed 0025 UTC 04 June 2020
Temperature: 15.0°C (59°F)
Dewpoint: 12.0°C (54°F) [RH = 82%]
Pressure (altimeter): 29.53 inches Hg (1000.0 mb)
Winds: from the WNW (290 degrees) at 5 MPH (4 knots; 2.1 m/s)
Visibility: 6 or more miles (10+ km)
Ceiling: 2400 feet AGL
Clouds: overcast cloud deck at 2400 feet AGL
Weather: no significant weather observed at this time

METAR text: EHEH 032355Z AUTO 30005KT 230V340 9999 BKN024 OVC140 14/12 Q1000 WHT
Conditions at: EHEH (EINDHOVEN RNLAFB, NL) observed 2355 UTC 03 June 2020
Temperature: 14.0°C (57°F)
Dewpoint: 12.0°C (54°F) [RH = 88%]
Pressure (altimeter): 29.53 inches Hg (1000.0 mb)
Winds: from the WNW (300 degrees) at 6 MPH (5 knots; 2.6 m/s)
Visibility: 6 or more miles (10+ km)
Ceiling: 2400 feet AGL
Clouds: broken clouds at 2400 feet AGL
overcast cloud deck at 14000 feet AGL
Weather: no significant weather observed at this time

METAR text: EHEH 032345Z AUTO 30004KT 240V340 9999 SCT024 OVC150 14/12 Q1000 WHT
Conditions at: EHEH (EINDHOVEN RNLAFB, NL) observed 2345 UTC 03 June 2020
Temperature: 14.0°C (57°F)
Dewpoint: 12.0°C (54°F) [RH = 88%]
Pressure (altimeter): 29.53 inches Hg (1000.0 mb)
Winds: from the WNW (300 degrees) at 5 MPH (4 knots; 2.1 m/s)
Visibility: 6 or more miles (10+ km)
Ceiling: 15000 feet AGL
Clouds: scattered clouds at 2400 feet AGL
overcast cloud deck at 15000 feet AGL
Weather: no significant weather observed at this time

METAR text: EHEH 032325Z AUTO 28004KT 240V310 9999 SCT025 OVC160 13/12 Q1000 BLU
Conditions at: EHEH (EINDHOVEN RNLAFB, NL) observed 2325 UTC 03 June 2020
Temperature: 13.0°C (55°F)
Dewpoint: 12.0°C (54°F) [RH = 94%]
Pressure (altimeter): 29.53 inches Hg (1000.0 mb)
Winds: from the W (280 degrees) at 5 MPH (4 knots; 2.1 m/s)
Visibility: 6 or more miles (10+ km)
Ceiling: 16000 feet AGL
Clouds: scattered clouds at 2500 feet AGL
overcast cloud deck at 16000 feet AGL
Weather: no significant weather observed at this time

METAR text: EHEH 032255Z AUTO 29004KT 230V350 9999 OVC170 14/12 Q1001 BLU
Conditions at: EHEH (EINDHOVEN RNLAFB, NL) observed 2255 UTC 03 June 2020
Temperature: 14.0°C (57°F)
Dewpoint: 12.0°C (54°F) [RH = 88%]
Pressure (altimeter): 29.56 inches Hg (1001.0 mb)
Winds: from the WNW (290 degrees) at 5 MPH (4 knots; 2.1 m/s)
Visibility: 6 or more miles (10+ km)
Ceiling: 17000 feet AGL
Clouds: overcast cloud deck at 17000 feet AGL
Weather: no significant weather observed at this time

METAR text: EHEH 032225Z AUTO 30005KT 230V340 9999 OVC150 14/12 Q1001 BLU
Conditions at: EHEH (EINDHOVEN RNLAFB, NL) observed 2225 UTC 03 June 2020
Temperature: 14.0°C (57°F)
Dewpoint: 12.0°C (54°F) [RH = 88%]
Pressure (altimeter): 29.56 inches Hg (1001.0 mb)
Winds: from the WNW (300 degrees) at 6 MPH (5 knots; 2.6 m/s)
Visibility: 6 or more miles (10+ km)
Ceiling: 15000 feet AGL
Clouds: overcast cloud deck at 15000 feet AGL
Weather: no significant weather observed at this time

METAR text: EHEH 032155Z AUTO 31006KT 250V360 9999 OVC170 14/12 Q1001 BLU
Conditions at: EHEH (EINDHOVEN RNLAFB, NL) observed 2155 UTC 03 June 2020
Temperature: 14.0°C (57°F)
Dewpoint: 12.0°C (54°F) [RH = 88%]
Pressure (altimeter): 29.56 inches Hg (1001.0 mb)
Winds: from the NW (310 degrees) at 7 MPH (6 knots; 3.1 m/s)
Visibility: 6 or more miles (10+ km)
Ceiling: 17000 feet AGL
Clouds: overcast cloud deck at 17000 feet AGL
Weather: no significant weather observed at this time

METAR text: EHEH 032125Z AUTO 32007KT 250V010 9999 OVC150 15/12 Q1001 BLU
Conditions at: EHEH (EINDHOVEN RNLAFB, NL) observed 2125 UTC 03 June 2020
Temperature: 15.0°C (59°F)
Dewpoint: 12.0°C (54°F) [RH = 82%]
Pressure (altimeter): 29.56 inches Hg (1001.0 mb)
Winds: from the NW (320 degrees) at 8 MPH (7 knots; 3.6 m/s)
Visibility: 6 or more miles (10+ km)
Ceiling: 15000 feet AGL
Clouds: overcast cloud deck at 15000 feet AGL
Weather: no significant weather observed at this time

METAR text: EHEH 032055Z AUTO 32007KT 270V030 9999 OVC160 16/11 Q1002 BLU
Conditions at: EHEH (EINDHOVEN RNLAFB, NL) observed 2055 UTC 03 June 2020
Temperature: 16.0°C (61°F)
Dewpoint: 11.0°C (52°F) [RH = 72%]
Pressure (altimeter): 29.59 inches Hg (1002.0 mb)
Winds: from the NW (320 degrees) at 8 MPH (7 knots; 3.6 m/s)
Visibility: 6 or more miles (10+ km)
Ceiling: 16000 feet AGL
Clouds: overcast cloud deck at 16000 feet AGL
Weather: no significant weather observed at this time

METAR text: EHEH 032025Z AUTO 30005KT 240V040 9999 FEW022CB OVC210 16/11 Q1002 BLU
Conditions at: EHEH (EINDHOVEN RNLAFB, NL) observed 2025 UTC 03 June 2020
Temperature: 16.0°C (61°F)
Dewpoint: 11.0°C (52°F) [RH = 72%]
Pressure (altimeter): 29.59 inches Hg (1002.0 mb)
Winds: from the WNW (300 degrees) at 6 MPH (5 knots; 2.6 m/s)
Visibility: 6 or more miles (10+ km)
Ceiling: 21000 feet AGL
Clouds: few clouds at 2200 feet AGL
overcast cloud deck at 21000 feet AGL
Weather: no significant weather observed at this time

METAR text: EHEH 031955Z AUTO 29005KT 260V030 9999 OVC180 17/09 Q1002 BLU
Conditions at: EHEH (EINDHOVEN RNLAFB, NL) observed 1955 UTC 03 June 2020
Temperature: 17.0°C (63°F)
Dewpoint: 9.0°C (48°F) [RH = 59%]
Pressure (altimeter): 29.59 inches Hg (1002.0 mb)
Winds: from the WNW (290 degrees) at 6 MPH (5 knots; 2.6 m/s)
Visibility: 6 or more miles (10+ km)
Ceiling: 18000 feet AGL
Clouds: overcast cloud deck at 18000 feet AGL
Weather: no significant weather observed at this time

METAR text: EHEH 031925Z AUTO 32006KT 260V020 9999 OVC160 18/09 Q1002 BLU
Conditions at: EHEH (EINDHOVEN RNLAFB, NL) observed 1925 UTC 03 June 2020
Temperature: 18.0°C (64°F)
Dewpoint: 9.0°C (48°F) [RH = 56%]
Pressure (altimeter): 29.59 inches Hg (1002.0 mb)
Winds: from the NW (320 degrees) at 7 MPH (6 knots; 3.1 m/s)
Visibility: 6 or more miles (10+ km)
Ceiling: 16000 feet AGL
Clouds: overcast cloud deck at 16000 feet AGL
Weather: no significant weather observed at this time

METAR text: EHEH 031855Z AUTO 33010KT 270V050 9999 OVC160 19/10 Q1002 BLU
Conditions at: EHEH (EINDHOVEN RNLAFB, NL) observed 1855 UTC 03 June 2020
Temperature: 19.0°C (66°F)
Dewpoint: 10.0°C (50°F) [RH = 56%]
Pressure (altimeter): 29.59 inches Hg (1002.0 mb)
Winds: from the NNW (330 degrees) at 12 MPH (10 knots; 5.1 m/s)
Visibility: 6 or more miles (10+ km)
Ceiling: 16000 feet AGL
Clouds: overcast cloud deck at 16000 feet AGL
Weather: no significant weather observed at this time

METAR text: EHEH 031825Z AUTO 34010KT 290V030 9999 OVC160 20/10 Q1002 BLU
Conditions at: EHEH (EINDHOVEN RNLAFB, NL) observed 1825 UTC 03 June 2020
Temperature: 20.0°C (68°F)
Dewpoint: 10.0°C (50°F) [RH = 53%]
Pressure (altimeter): 29.59 inches Hg (1002.0 mb)
Winds: from the NNW (340 degrees) at 12 MPH (10 knots; 5.1 m/s)
Visibility: 6 or more miles (10+ km)
Ceiling: 16000 feet AGL
Clouds: overcast cloud deck at 16000 feet AGL
Weather: no significant weather observed at this time

METAR text: EHEH 031755Z AUTO 32010KT 220V030 9999 OVC140 21/08 Q1002 BLU
Conditions at: EHEH (EINDHOVEN RNLAFB, NL) observed 1755 UTC 03 June 2020
Temperature: 21.0°C (70°F)
Dewpoint: 8.0°C (46°F) [RH = 43%]
Pressure (altimeter): 29.59 inches Hg (1002.0 mb)
Winds: from the NW (320 degrees) at 12 MPH (10 knots; 5.1 m/s)
Visibility: 6 or more miles (10+ km)
Ceiling: 14000 feet AGL
Clouds: overcast cloud deck at 14000 feet AGL
Weather: no significant weather observed at this time

METAR text: EHEH 031725Z AUTO 33010KT 260V030 9999 OVC130 22/08 Q1002 BLU
Conditions at: EHEH (EINDHOVEN RNLAFB, NL) observed 1725 UTC 03 June 2020
Temperature: 22.0°C (72°F)
Dewpoint: 8.0°C (46°F) [RH = 41%]
Pressure (altimeter): 29.59 inches Hg (1002.0 mb)
Winds: from the NNW (330 degrees) at 12 MPH (10 knots; 5.1 m/s)
Visibility: 6 or more miles (10+ km)
Ceiling: 13000 feet AGL
Clouds: overcast cloud deck at 13000 feet AGL
Weather: no significant weather observed at this time

METAR text: EHEH 031655Z AUTO 32009KT 260V020 9999 OVC140 22/08 Q1002 BLU
Conditions at: EHEH (EINDHOVEN RNLAFB, NL) observed 1655 UTC 03 June 2020
Temperature: 22.0°C (72°F)
Dewpoint: 8.0°C (46°F) [RH = 41%]
Pressure (altimeter): 29.59 inches Hg (1002.0 mb)
Winds: from the NW (320 degrees) at 10 MPH (9 knots; 4.6 m/s)
Visibility: 6 or more miles (10+ km)
Ceiling: 14000 feet AGL
Clouds: overcast cloud deck at 14000 feet AGL
Weather: no significant weather observed at this time

METAR text: EHEH 031625Z AUTO 34010KT 290V030 9999 BKN054 OVC160 22/09 Q1002 BLU
Conditions at: EHEH (EINDHOVEN RNLAFB, NL) observed 1625 UTC 03 June 2020
Temperature: 22.0°C (72°F)
Dewpoint: 9.0°C (48°F) [RH = 43%]
Pressure (altimeter): 29.59 inches Hg (1002.0 mb)
Winds: from the NNW (340 degrees) at 12 MPH (10 knots; 5.1 m/s)
Visibility: 6 or more miles (10+ km)
Ceiling: 5400 feet AGL
Clouds: broken clouds at 5400 feet AGL
overcast cloud deck at 16000 feet AGL
Weather: no significant weather observed at this time

METAR text: EHEH 031613Z AUTO 34009KT 300V030 9999 BKN054 OVC160 22/09 Q1002 BLU
Conditions at: EHEH (EINDHOVEN RNLAFB, NL) observed 1613 UTC 03 June 2020
Temperature: 22.0°C (72°F)
Dewpoint: 9.0°C (48°F) [RH = 43%]
Pressure (altimeter): 29.59 inches Hg (1002.0 mb)
Winds: from the NNW (340 degrees) at 10 MPH (9 knots; 4.6 m/s)
Visibility: 6 or more miles (10+ km)
Ceiling: 5400 feet AGL
Clouds: broken clouds at 5400 feet AGL
overcast cloud deck at 16000 feet AGL
Weather: no significant weather observed at this time

METAR text: EHEH 031601Z AUTO 35010KT 270V040 9999 R21/0700D FEW054 OVC160 23/09 Q1002 BLU 31008G18KT CAVOK
Conditions at: EHEH (EINDHOVEN RNLAFB, NL) observed 1601 UTC 03 June 2020
Temperature: 23.0°C (73°F)
Dewpoint: 9.0°C (48°F) [RH = 41%]
Pressure (altimeter): 29.59 inches Hg (1002.0 mb)
Winds: from the N (350 degrees) at 12 MPH (10 knots; 5.1 m/s)
Visibility: 6 or more miles (10+ km)
Ceiling: 16000 feet AGL
Clouds: few clouds at 5400 feet AGL
overcast cloud deck at 16000 feet AGL
Weather: no significant weather observed at this time

METAR text: EHEH 031555Z AUTO 34009KT 290V040 9999 FEW061 OVC170 23/09 Q1002 BLU 31008G18KT CAVOK
Conditions at: EHEH (EINDHOVEN RNLAFB, NL) observed 1555 UTC 03 June 2020
Temperature: 23.0°C (73°F)
Dewpoint: 9.0°C (48°F) [RH = 41%]
Pressure (altimeter): 29.59 inches Hg (1002.0 mb)
Winds: from the NNW (340 degrees) at 10 MPH (9 knots; 4.6 m/s)
Visibility: 6 or more miles (10+ km)
Ceiling: 17000 feet AGL
Clouds: few clouds at 6100 feet AGL
overcast cloud deck at 17000 feet AGL
Weather: no significant weather observed at this time

METAR text: EHEH 031525Z AUTO 31008KT 230V010 9999 FEW058 OVC160 23/09 Q1003 BLU 31008G18KT CAVOK
Conditions at: EHEH (EINDHOVEN RNLAFB, NL) observed 1525 UTC 03 June 2020
Temperature: 23.0°C (73°F)
Dewpoint: 9.0°C (48°F) [RH = 41%]
Pressure (altimeter): 29.62 inches Hg (1003.0 mb)
Winds: from the NW (310 degrees) at 9 MPH (8 knots; 4.1 m/s)
Visibility: 6 or more miles (10+ km)
Ceiling: 16000 feet AGL
Clouds: few clouds at 5800 feet AGL
overcast cloud deck at 16000 feet AGL
Weather: no significant weather observed at this time

METAR text: EHEH 031455Z AUTO 31008KT 200V010 9999 SCT059 OVC170 23/08 Q1003 BLU 26008KT CAVOK BECMG 31008G18KT
Conditions at: EHEH (EINDHOVEN RNLAFB, NL) observed 1455 UTC 03 June 2020
Temperature: 23.0°C (73°F)
Dewpoint: 8.0°C (46°F) [RH = 38%]
Pressure (altimeter): 29.62 inches Hg (1003.0 mb)
Winds: from the NW (310 degrees) at 9 MPH (8 knots; 4.1 m/s)
Visibility: 6 or more miles (10+ km)
Ceiling: 17000 feet AGL
Clouds: scattered clouds at 5900 feet AGL
overcast cloud deck at 17000 feet AGL
Weather: no significant weather observed at this time

METAR text: EHEH 031425Z AUTO VRB06KT 9999 FEW058 OVC170 23/08 Q1003 BLU 26008KT CAVOK BECMG 31008G18KT
Conditions at: EHEH (EINDHOVEN RNLAFB, NL) observed 1425 UTC 03 June 2020
Temperature: 23.0°C (73°F)
Dewpoint: 8.0°C (46°F) [RH = 38%]
Pressure (altimeter): 29.62 inches Hg (1003.0 mb)
Winds: variable direction winds at 7 MPH (6 knots; 3.1 m/s)
Visibility: 6 or more miles (10+ km)
Ceiling: 17000 feet AGL
Clouds: few clouds at 5800 feet AGL
overcast cloud deck at 17000 feet AGL
Weather: no significant weather observed at this time

Forecast for: EHEH (EINDHOVEN RNLAFB, NL)
Text: TAF EHEH 042339Z 0500/0606 24005KT 9999 SCT025
Forecast period: 0000 to 0500 UTC 05 June 2020
Forecast type: FROM: standard forecast or significant change
Winds: from the WSW (240 degrees) at 6 MPH (5 knots; 2.6 m/s)
Visibility: 6 or more miles 10+ km)
Ceiling: at least 12,000 feet AGL
Clouds: scattered clouds at 2500 feet AGL
Weather: no significant weather forecast for this period
Text: BECMG 0505/0507 22012G22KT
Forecast period: 0500 to 1700 UTC 05 June 2020
Forecast type: BECOMING: Conditions expected to become as follows by 0700 UTC 05 June 2020
Winds: from the SW (220 degrees) at 14 MPH (12 knots; 6.2 m/s)
gusting to 25 MPH (22 knots; 11.3 m/s)
Visibility: 6 or more miles 10+ km)
Ceiling: at least 12,000 feet AGL
Clouds: scattered clouds at 2500 feet AGL
Weather: no significant weather forecast for this period
Text: TEMPO 0508/0602 24015G28KT 4500 SHRA TSRA FEW008 SCT015CB BKN020
Forecast period: 0800 UTC 05 June 2020 to 0200 UTC 06 June 2020
Forecast type: TEMPORARY: The following changes expected for less than half the time period
Winds: from the WSW (240 degrees) at 17 MPH (15 knots; 7.7 m/s)
gusting to 32 MPH (28 knots; 14.4 m/s)
Visibility: 2.80 miles (4.51 km)
Ceiling: 2000 feet AGL
Clouds: few clouds at 800 feet AGL
scattered clouds at 1500 feet AGL
broken clouds at 2000 feet AGL
Weather: SHRA TSRA  (rain showers, rain associated with thunderstorm(s))
Text: PROB40
Forecast period: 0900 to 1300 UTC 05 June 2020
Forecast type: TEMPORARY: The following changes expected for less than half the time period
Winds: from the WSW (250 degrees) at 17 MPH (15 knots; 7.7 m/s)
gusting to 34 MPH (30 knots; 15.4 m/s)
Visibility: 1.55 miles (2.49 km)
Ceiling: 1300 feet AGL
Clouds: scattered clouds at 800 feet AGL
broken clouds at 1300 feet AGL
Weather: TSRA TSGR  (rain associated with thunderstorm(s), hail associated with thunderstorm(s))
Text: TEMPO 0509/0513 25015G30KT 2500 TSRAGR SCT008 BKN013CB
Forecast period: 1700 UTC 05 June 2020 to 0600 UTC 06 June 2020
Forecast type: BECOMING: Conditions expected to become as follows by 1900 UTC 05 June 2020
Winds: from the WSW (240 degrees) at 10 MPH (9 knots; 4.6 m/s)
Visibility: 6 or more miles 10+ km)
Ceiling: at least 12,000 feet AGL
Clouds: scattered clouds at 2500 feet AGL
Weather: no significant weather forecast for this period